<?xml version="1.0" encoding="UTF-8" standalone="no" ?>
<gpx xmlns="http://www.topografix.com/GPX/1/1" xmlns:xsi="http://www.w3.org/2001/XMLSchema-instance" xsi:schemaLocation="http://www.topografix.com/GPX/1/1 http://www.topografix.com/GPX/1/1/gpx.xsd" version="1.1" creator="VisuGPX - https://www.visugpx.com">
  <metadata>
    <name>Raon-Faucompierre-trace-Appel-Corbeaux-Renard/Bis</name>
    <desc><![CDATA[Circuit court mais physique, tip top, une spéciale d\'enduro pour finir avec la banane :)]]></desc>
  </metadata>
  <trk>
    <name><![CDATA[ACTIVE LOG 001]]></name>
    <trkseg>
      <trkpt lat="48.39661" lon="6.8465">
        <ele>324.1015625</ele>
        <time>2012-05-13T06:33:55Z</time>
      </trkpt>
      <trkpt lat="48.39656" lon="6.8465">
        <ele>322.65966796875</ele>
        <time>2012-05-13T06:34:33Z</time>
      </trkpt>
      <trkpt lat="48.39656" lon="6.84651">
        <ele>324.58227539062</ele>
        <time>2012-05-13T06:37:04Z</time>
      </trkpt>
      <trkpt lat="48.39656" lon="6.84647">
        <ele>324.1015625</ele>
        <time>2012-05-13T06:37:34Z</time>
      </trkpt>
      <trkpt lat="48.39653" lon="6.84637">
        <ele>325.06298828125</ele>
        <time>2012-05-13T06:37:40Z</time>
      </trkpt>
      <trkpt lat="48.39635" lon="6.84622">
        <ele>327.94677734375</ele>
        <time>2012-05-13T06:37:50Z</time>
      </trkpt>
      <trkpt lat="48.39608" lon="6.84616">
        <ele>331.3115234375</ele>
        <time>2012-05-13T06:38:04Z</time>
      </trkpt>
      <trkpt lat="48.39585" lon="6.84615">
        <ele>332.75354003906</ele>
        <time>2012-05-13T06:38:15Z</time>
      </trkpt>
      <trkpt lat="48.39563" lon="6.84629">
        <ele>338.04077148438</ele>
        <time>2012-05-13T06:38:31Z</time>
      </trkpt>
      <trkpt lat="48.3956" lon="6.84635">
        <ele>339.00207519531</ele>
        <time>2012-05-13T06:38:34Z</time>
      </trkpt>
      <trkpt lat="48.39558" lon="6.84624">
        <ele>339.48266601562</ele>
        <time>2012-05-13T06:38:42Z</time>
      </trkpt>
      <trkpt lat="48.39572" lon="6.84567">
        <ele>340.92468261719</ele>
        <time>2012-05-13T06:38:54Z</time>
      </trkpt>
      <trkpt lat="48.39573" lon="6.8456">
        <ele>341.4052734375</ele>
        <time>2012-05-13T06:38:56Z</time>
      </trkpt>
      <trkpt lat="48.39579" lon="6.84531">
        <ele>347.17321777344</ele>
        <time>2012-05-13T06:39:08Z</time>
      </trkpt>
      <trkpt lat="48.39581" lon="6.84523">
        <ele>348.615234375</ele>
        <time>2012-05-13T06:39:17Z</time>
      </trkpt>
      <trkpt lat="48.39581" lon="6.84522">
        <ele>348.615234375</ele>
        <time>2012-05-13T06:39:29Z</time>
      </trkpt>
      <trkpt lat="48.39581" lon="6.84522">
        <ele>348.13464355469</ele>
        <time>2012-05-13T06:39:39Z</time>
      </trkpt>
      <trkpt lat="48.39584" lon="6.84511">
        <ele>349.09582519531</ele>
        <time>2012-05-13T06:39:42Z</time>
      </trkpt>
      <trkpt lat="48.39586" lon="6.84501">
        <ele>349.57653808594</ele>
        <time>2012-05-13T06:39:45Z</time>
      </trkpt>
      <trkpt lat="48.396" lon="6.84437">
        <ele>353.421875</ele>
        <time>2012-05-13T06:40:04Z</time>
      </trkpt>
      <trkpt lat="48.39605" lon="6.84404">
        <ele>357.74780273438</ele>
        <time>2012-05-13T06:40:15Z</time>
      </trkpt>
      <trkpt lat="48.39606" lon="6.84396">
        <ele>358.708984375</ele>
        <time>2012-05-13T06:40:18Z</time>
      </trkpt>
      <trkpt lat="48.39607" lon="6.84388">
        <ele>359.67041015625</ele>
        <time>2012-05-13T06:40:21Z</time>
      </trkpt>
      <trkpt lat="48.39608" lon="6.8438">
        <ele>358.22839355469</ele>
        <time>2012-05-13T06:40:24Z</time>
      </trkpt>
      <trkpt lat="48.39608" lon="6.84375">
        <ele>359.18969726562</ele>
        <time>2012-05-13T06:40:26Z</time>
      </trkpt>
      <trkpt lat="48.39609" lon="6.8437">
        <ele>359.67041015625</ele>
        <time>2012-05-13T06:40:28Z</time>
      </trkpt>
      <trkpt lat="48.3961" lon="6.8436">
        <ele>361.11242675781</ele>
        <time>2012-05-13T06:40:32Z</time>
      </trkpt>
      <trkpt lat="48.39613" lon="6.84331">
        <ele>365.43835449219</ele>
        <time>2012-05-13T06:40:43Z</time>
      </trkpt>
      <trkpt lat="48.39617" lon="6.84286">
        <ele>367.84155273438</ele>
        <time>2012-05-13T06:40:58Z</time>
      </trkpt>
      <trkpt lat="48.39618" lon="6.84279">
        <ele>368.322265625</ele>
        <time>2012-05-13T06:41:00Z</time>
      </trkpt>
      <trkpt lat="48.39622" lon="6.84233">
        <ele>370.24487304688</ele>
        <time>2012-05-13T06:41:13Z</time>
      </trkpt>
      <trkpt lat="48.39622" lon="6.8417">
        <ele>365.9189453125</ele>
        <time>2012-05-13T06:41:23Z</time>
      </trkpt>
      <trkpt lat="48.39611" lon="6.84115">
        <ele>370.24487304688</ele>
        <time>2012-05-13T06:41:32Z</time>
      </trkpt>
      <trkpt lat="48.39597" lon="6.84069">
        <ele>366.39953613281</ele>
        <time>2012-05-13T06:41:47Z</time>
      </trkpt>
      <trkpt lat="48.39587" lon="6.84034">
        <ele>368.80297851562</ele>
        <time>2012-05-13T06:42:00Z</time>
      </trkpt>
      <trkpt lat="48.39587" lon="6.8403">
        <ele>369.76428222656</ele>
        <time>2012-05-13T06:42:03Z</time>
      </trkpt>
      <trkpt lat="48.39581" lon="6.83982">
        <ele>371.68688964844</ele>
        <time>2012-05-13T06:42:17Z</time>
      </trkpt>
      <trkpt lat="48.39568" lon="6.83936">
        <ele>375.05151367188</ele>
        <time>2012-05-13T06:42:34Z</time>
      </trkpt>
      <trkpt lat="48.39558" lon="6.8391">
        <ele>377.93542480469</ele>
        <time>2012-05-13T06:42:44Z</time>
      </trkpt>
      <trkpt lat="48.39543" lon="6.83883">
        <ele>383.22265625</ele>
        <time>2012-05-13T06:42:56Z</time>
      </trkpt>
      <trkpt lat="48.39514" lon="6.8383">
        <ele>386.58740234375</ele>
        <time>2012-05-13T06:43:18Z</time>
      </trkpt>
      <trkpt lat="48.39476" lon="6.83768">
        <ele>389.95190429688</ele>
        <time>2012-05-13T06:43:42Z</time>
      </trkpt>
      <trkpt lat="48.39442" lon="6.83717">
        <ele>388.51000976562</ele>
        <time>2012-05-13T06:44:03Z</time>
      </trkpt>
      <trkpt lat="48.3942" lon="6.83686">
        <ele>388.51000976562</ele>
        <time>2012-05-13T06:44:20Z</time>
      </trkpt>
      <trkpt lat="48.39415" lon="6.83679">
        <ele>389.47119140625</ele>
        <time>2012-05-13T06:44:25Z</time>
      </trkpt>
      <trkpt lat="48.39414" lon="6.83676">
        <ele>390.4326171875</ele>
        <time>2012-05-13T06:44:27Z</time>
      </trkpt>
      <trkpt lat="48.39409" lon="6.83667">
        <ele>389.47119140625</ele>
        <time>2012-05-13T06:44:32Z</time>
      </trkpt>
      <trkpt lat="48.39394" lon="6.83652">
        <ele>394.75854492188</ele>
        <time>2012-05-13T06:44:47Z</time>
      </trkpt>
      <trkpt lat="48.39391" lon="6.83644">
        <ele>396.68115234375</ele>
        <time>2012-05-13T06:44:53Z</time>
      </trkpt>
      <trkpt lat="48.39388" lon="6.83637">
        <ele>397.64245605469</ele>
        <time>2012-05-13T06:44:55Z</time>
      </trkpt>
      <trkpt lat="48.39386" lon="6.83632">
        <ele>400.52648925781</ele>
        <time>2012-05-13T06:45:00Z</time>
      </trkpt>
      <trkpt lat="48.39381" lon="6.83618">
        <ele>403.41040039062</ele>
        <time>2012-05-13T06:45:05Z</time>
      </trkpt>
      <trkpt lat="48.3937" lon="6.83596">
        <ele>404.37170410156</ele>
        <time>2012-05-13T06:45:16Z</time>
      </trkpt>
      <trkpt lat="48.39355" lon="6.83568">
        <ele>405.3330078125</ele>
        <time>2012-05-13T06:45:31Z</time>
      </trkpt>
      <trkpt lat="48.39333" lon="6.83561">
        <ele>406.77490234375</ele>
        <time>2012-05-13T06:45:46Z</time>
      </trkpt>
      <trkpt lat="48.39303" lon="6.8355">
        <ele>410.1396484375</ele>
        <time>2012-05-13T06:46:03Z</time>
      </trkpt>
      <trkpt lat="48.39283" lon="6.83534">
        <ele>413.50427246094</ele>
        <time>2012-05-13T06:46:16Z</time>
      </trkpt>
      <trkpt lat="48.39273" lon="6.83524">
        <ele>414.94616699219</ele>
        <time>2012-05-13T06:46:20Z</time>
      </trkpt>
      <trkpt lat="48.39272" lon="6.83523">
        <ele>417.83020019531</ele>
        <time>2012-05-13T06:46:26Z</time>
      </trkpt>
      <trkpt lat="48.39265" lon="6.83517">
        <ele>419.27221679688</ele>
        <time>2012-05-13T06:46:30Z</time>
      </trkpt>
      <trkpt lat="48.39266" lon="6.83478">
        <ele>420.71411132812</ele>
        <time>2012-05-13T06:46:35Z</time>
      </trkpt>
      <trkpt lat="48.39253" lon="6.83456">
        <ele>424.55944824219</ele>
        <time>2012-05-13T06:46:43Z</time>
      </trkpt>
      <trkpt lat="48.39248" lon="6.83435">
        <ele>430.32727050781</ele>
        <time>2012-05-13T06:46:52Z</time>
      </trkpt>
      <trkpt lat="48.39236" lon="6.83402">
        <ele>434.6533203125</ele>
        <time>2012-05-13T06:47:02Z</time>
      </trkpt>
      <trkpt lat="48.39235" lon="6.83395">
        <ele>437.05651855469</ele>
        <time>2012-05-13T06:47:06Z</time>
      </trkpt>
      <trkpt lat="48.39233" lon="6.83387">
        <ele>438.97912597656</ele>
        <time>2012-05-13T06:47:10Z</time>
      </trkpt>
      <trkpt lat="48.39229" lon="6.83382">
        <ele>439.45971679688</ele>
        <time>2012-05-13T06:47:12Z</time>
      </trkpt>
      <trkpt lat="48.39221" lon="6.83363">
        <ele>441.38244628906</ele>
        <time>2012-05-13T06:47:19Z</time>
      </trkpt>
      <trkpt lat="48.39206" lon="6.83344">
        <ele>443.78576660156</ele>
        <time>2012-05-13T06:47:28Z</time>
      </trkpt>
      <trkpt lat="48.39203" lon="6.83333">
        <ele>444.7470703125</ele>
        <time>2012-05-13T06:47:32Z</time>
      </trkpt>
      <trkpt lat="48.39198" lon="6.83319">
        <ele>447.63098144531</ele>
        <time>2012-05-13T06:47:38Z</time>
      </trkpt>
      <trkpt lat="48.3919" lon="6.83296">
        <ele>450.51501464844</ele>
        <time>2012-05-13T06:47:48Z</time>
      </trkpt>
      <trkpt lat="48.39188" lon="6.83292">
        <ele>451.47631835938</ele>
        <time>2012-05-13T06:47:50Z</time>
      </trkpt>
      <trkpt lat="48.39177" lon="6.83263">
        <ele>452.43762207031</ele>
        <time>2012-05-13T06:48:04Z</time>
      </trkpt>
      <trkpt lat="48.39174" lon="6.83251">
        <ele>453.39892578125</ele>
        <time>2012-05-13T06:48:10Z</time>
      </trkpt>
      <trkpt lat="48.3917" lon="6.83242">
        <ele>454.36022949219</ele>
        <time>2012-05-13T06:48:14Z</time>
      </trkpt>
      <trkpt lat="48.39158" lon="6.83217">
        <ele>452.43762207031</ele>
        <time>2012-05-13T06:48:24Z</time>
      </trkpt>
      <trkpt lat="48.39154" lon="6.83213">
        <ele>451.95703125</ele>
        <time>2012-05-13T06:48:27Z</time>
      </trkpt>
      <trkpt lat="48.39153" lon="6.83206">
        <ele>452.43762207031</ele>
        <time>2012-05-13T06:48:30Z</time>
      </trkpt>
      <trkpt lat="48.39155" lon="6.83199">
        <ele>454.8408203125</ele>
        <time>2012-05-13T06:48:46Z</time>
      </trkpt>
      <trkpt lat="48.39142" lon="6.83187">
        <ele>452.43762207031</ele>
        <time>2012-05-13T06:48:58Z</time>
      </trkpt>
      <trkpt lat="48.3914" lon="6.8318">
        <ele>450.51501464844</ele>
        <time>2012-05-13T06:49:03Z</time>
      </trkpt>
      <trkpt lat="48.39137" lon="6.83166">
        <ele>448.11181640625</ele>
        <time>2012-05-13T06:49:18Z</time>
      </trkpt>
      <trkpt lat="48.39135" lon="6.83158">
        <ele>447.63098144531</ele>
        <time>2012-05-13T06:49:31Z</time>
      </trkpt>
      <trkpt lat="48.39135" lon="6.83151">
        <ele>447.63098144531</ele>
        <time>2012-05-13T06:49:36Z</time>
      </trkpt>
      <trkpt lat="48.39132" lon="6.83122">
        <ele>447.63098144531</ele>
        <time>2012-05-13T06:49:47Z</time>
      </trkpt>
      <trkpt lat="48.39128" lon="6.83087">
        <ele>450.51501464844</ele>
        <time>2012-05-13T06:50:01Z</time>
      </trkpt>
      <trkpt lat="48.39128" lon="6.83052">
        <ele>454.36022949219</ele>
        <time>2012-05-13T06:50:14Z</time>
      </trkpt>
      <trkpt lat="48.39127" lon="6.83047">
        <ele>455.32153320312</ele>
        <time>2012-05-13T06:50:17Z</time>
      </trkpt>
      <trkpt lat="48.39133" lon="6.83013">
        <ele>457.72497558594</ele>
        <time>2012-05-13T06:50:30Z</time>
      </trkpt>
      <trkpt lat="48.39144" lon="6.82971">
        <ele>463.49279785156</ele>
        <time>2012-05-13T06:50:44Z</time>
      </trkpt>
      <trkpt lat="48.39147" lon="6.82957">
        <ele>464.93481445312</ele>
        <time>2012-05-13T06:50:48Z</time>
      </trkpt>
      <trkpt lat="48.39153" lon="6.82939">
        <ele>464.93481445312</ele>
        <time>2012-05-13T06:50:55Z</time>
      </trkpt>
      <trkpt lat="48.39158" lon="6.82912">
        <ele>468.29931640625</ele>
        <time>2012-05-13T06:51:06Z</time>
      </trkpt>
      <trkpt lat="48.39159" lon="6.82907">
        <ele>467.81872558594</ele>
        <time>2012-05-13T06:51:08Z</time>
      </trkpt>
      <trkpt lat="48.39144" lon="6.82878">
        <ele>468.29931640625</ele>
        <time>2012-05-13T06:51:23Z</time>
      </trkpt>
      <trkpt lat="48.39123" lon="6.8289">
        <ele>471.18334960938</ele>
        <time>2012-05-13T06:51:38Z</time>
      </trkpt>
      <trkpt lat="48.39099" lon="6.82906">
        <ele>472.62536621094</ele>
        <time>2012-05-13T06:51:53Z</time>
      </trkpt>
      <trkpt lat="48.39091" lon="6.8293">
        <ele>475.02868652344</ele>
        <time>2012-05-13T06:52:04Z</time>
      </trkpt>
      <trkpt lat="48.39075" lon="6.8298">
        <ele>478.87390136719</ele>
        <time>2012-05-13T06:52:21Z</time>
      </trkpt>
      <trkpt lat="48.39075" lon="6.82983">
        <ele>478.87390136719</ele>
        <time>2012-05-13T06:52:22Z</time>
      </trkpt>
      <trkpt lat="48.39066" lon="6.8301">
        <ele>481.7578125</ele>
        <time>2012-05-13T06:52:31Z</time>
      </trkpt>
      <trkpt lat="48.39069" lon="6.83036">
        <ele>483.68041992188</ele>
        <time>2012-05-13T06:52:43Z</time>
      </trkpt>
      <trkpt lat="48.39069" lon="6.83041">
        <ele>483.68041992188</ele>
        <time>2012-05-13T06:52:45Z</time>
      </trkpt>
      <trkpt lat="48.39062" lon="6.83047">
        <ele>485.12243652344</ele>
        <time>2012-05-13T06:52:51Z</time>
      </trkpt>
      <trkpt lat="48.39054" lon="6.83046">
        <ele>485.60302734375</ele>
        <time>2012-05-13T06:53:02Z</time>
      </trkpt>
      <trkpt lat="48.39044" lon="6.83046">
        <ele>486.08374023438</ele>
        <time>2012-05-13T06:53:18Z</time>
      </trkpt>
      <trkpt lat="48.39039" lon="6.83047">
        <ele>488.48718261719</ele>
        <time>2012-05-13T06:53:31Z</time>
      </trkpt>
      <trkpt lat="48.3904" lon="6.8305">
        <ele>488.48718261719</ele>
        <time>2012-05-13T06:54:04Z</time>
      </trkpt>
      <trkpt lat="48.3904" lon="6.83049">
        <ele>488.00646972656</ele>
        <time>2012-05-13T06:54:33Z</time>
      </trkpt>
      <trkpt lat="48.39039" lon="6.8305">
        <ele>487.52563476562</ele>
        <time>2012-05-13T06:54:59Z</time>
      </trkpt>
      <trkpt lat="48.3904" lon="6.83051">
        <ele>486.564453125</ele>
        <time>2012-05-13T06:55:18Z</time>
      </trkpt>
      <trkpt lat="48.39036" lon="6.83051">
        <ele>483.68041992188</ele>
        <time>2012-05-13T06:56:11Z</time>
      </trkpt>
      <trkpt lat="48.39025" lon="6.8305">
        <ele>484.1611328125</ele>
        <time>2012-05-13T06:57:02Z</time>
      </trkpt>
      <trkpt lat="48.39023" lon="6.83049">
        <ele>484.64184570312</ele>
        <time>2012-05-13T06:57:04Z</time>
      </trkpt>
      <trkpt lat="48.39001" lon="6.83058">
        <ele>484.64184570312</ele>
        <time>2012-05-13T06:57:15Z</time>
      </trkpt>
      <trkpt lat="48.38985" lon="6.8307">
        <ele>485.60302734375</ele>
        <time>2012-05-13T06:57:24Z</time>
      </trkpt>
      <trkpt lat="48.38976" lon="6.83075">
        <ele>485.12243652344</ele>
        <time>2012-05-13T06:57:29Z</time>
      </trkpt>
      <trkpt lat="48.3897" lon="6.83075">
        <ele>484.64184570312</ele>
        <time>2012-05-13T06:57:32Z</time>
      </trkpt>
      <trkpt lat="48.38944" lon="6.83084">
        <ele>484.64184570312</ele>
        <time>2012-05-13T06:57:45Z</time>
      </trkpt>
      <trkpt lat="48.38938" lon="6.83089">
        <ele>484.1611328125</ele>
        <time>2012-05-13T06:57:51Z</time>
      </trkpt>
      <trkpt lat="48.38935" lon="6.83092">
        <ele>484.64184570312</ele>
        <time>2012-05-13T06:57:54Z</time>
      </trkpt>
      <trkpt lat="48.38919" lon="6.83101">
        <ele>488.9677734375</ele>
        <time>2012-05-13T06:58:04Z</time>
      </trkpt>
      <trkpt lat="48.38918" lon="6.83102">
        <ele>488.9677734375</ele>
        <time>2012-05-13T06:58:05Z</time>
      </trkpt>
      <trkpt lat="48.38903" lon="6.83111">
        <ele>493.77429199219</ele>
        <time>2012-05-13T06:58:15Z</time>
      </trkpt>
      <trkpt lat="48.38885" lon="6.83114">
        <ele>500.02294921875</ele>
        <time>2012-05-13T06:58:27Z</time>
      </trkpt>
      <trkpt lat="48.38868" lon="6.83102">
        <ele>507.71350097656</ele>
        <time>2012-05-13T06:58:37Z</time>
      </trkpt>
      <trkpt lat="48.38862" lon="6.83097">
        <ele>509.63610839844</ele>
        <time>2012-05-13T06:58:41Z</time>
      </trkpt>
      <trkpt lat="48.38847" lon="6.83074">
        <ele>516.365234375</ele>
        <time>2012-05-13T06:58:52Z</time>
      </trkpt>
      <trkpt lat="48.38843" lon="6.8307">
        <ele>518.28784179688</ele>
        <time>2012-05-13T06:58:54Z</time>
      </trkpt>
      <trkpt lat="48.38826" lon="6.83038">
        <ele>519.24926757812</ele>
        <time>2012-05-13T06:59:07Z</time>
      </trkpt>
      <trkpt lat="48.3882" lon="6.83004">
        <ele>520.69128417969</ele>
        <time>2012-05-13T06:59:18Z</time>
      </trkpt>
      <trkpt lat="48.38818" lon="6.82992">
        <ele>519.72985839844</ele>
        <time>2012-05-13T06:59:22Z</time>
      </trkpt>
      <trkpt lat="48.38813" lon="6.82981">
        <ele>521.65258789062</ele>
        <time>2012-05-13T06:59:26Z</time>
      </trkpt>
      <trkpt lat="48.38801" lon="6.82945">
        <ele>523.5751953125</ele>
        <time>2012-05-13T06:59:39Z</time>
      </trkpt>
      <trkpt lat="48.38789" lon="6.82917">
        <ele>526.93981933594</ele>
        <time>2012-05-13T06:59:51Z</time>
      </trkpt>
      <trkpt lat="48.38777" lon="6.82893">
        <ele>527.42041015625</ele>
        <time>2012-05-13T07:00:00Z</time>
      </trkpt>
      <trkpt lat="48.38756" lon="6.82865">
        <ele>525.49780273438</ele>
        <time>2012-05-13T07:00:13Z</time>
      </trkpt>
      <trkpt lat="48.38731" lon="6.82845">
        <ele>524.05578613281</ele>
        <time>2012-05-13T07:00:27Z</time>
      </trkpt>
      <trkpt lat="48.38729" lon="6.82844">
        <ele>524.05578613281</ele>
        <time>2012-05-13T07:00:28Z</time>
      </trkpt>
      <trkpt lat="48.38718" lon="6.82834">
        <ele>524.53649902344</ele>
        <time>2012-05-13T07:00:36Z</time>
      </trkpt>
      <trkpt lat="48.38709" lon="6.82831">
        <ele>525.49780273438</ele>
        <time>2012-05-13T07:00:42Z</time>
      </trkpt>
      <trkpt lat="48.38684" lon="6.82822">
        <ele>528.3818359375</ele>
        <time>2012-05-13T07:00:56Z</time>
      </trkpt>
      <trkpt lat="48.38655" lon="6.82824">
        <ele>532.70776367188</ele>
        <time>2012-05-13T07:01:14Z</time>
      </trkpt>
      <trkpt lat="48.38636" lon="6.82829">
        <ele>538.47570800781</ele>
        <time>2012-05-13T07:01:26Z</time>
      </trkpt>
      <trkpt lat="48.3862" lon="6.82808">
        <ele>541.35949707031</ele>
        <time>2012-05-13T07:01:38Z</time>
      </trkpt>
      <trkpt lat="48.38618" lon="6.82803">
        <ele>542.32092285156</ele>
        <time>2012-05-13T07:01:40Z</time>
      </trkpt>
      <trkpt lat="48.38613" lon="6.82798">
        <ele>543.28210449219</ele>
        <time>2012-05-13T07:01:43Z</time>
      </trkpt>
      <trkpt lat="48.38608" lon="6.82779">
        <ele>545.20483398438</ele>
        <time>2012-05-13T07:01:49Z</time>
      </trkpt>
      <trkpt lat="48.3861" lon="6.82774">
        <ele>545.685546875</ele>
        <time>2012-05-13T07:01:51Z</time>
      </trkpt>
      <trkpt lat="48.38598" lon="6.82735">
        <ele>549.05004882812</ele>
        <time>2012-05-13T07:02:05Z</time>
      </trkpt>
      <trkpt lat="48.38595" lon="6.82722">
        <ele>550.4921875</ele>
        <time>2012-05-13T07:02:10Z</time>
      </trkpt>
      <trkpt lat="48.38587" lon="6.82701">
        <ele>552.89526367188</ele>
        <time>2012-05-13T07:02:18Z</time>
      </trkpt>
      <trkpt lat="48.38584" lon="6.82696">
        <ele>553.85668945312</ele>
        <time>2012-05-13T07:02:20Z</time>
      </trkpt>
      <trkpt lat="48.38577" lon="6.82678">
        <ele>556.74072265625</ele>
        <time>2012-05-13T07:02:26Z</time>
      </trkpt>
      <trkpt lat="48.38558" lon="6.82649">
        <ele>561.06665039062</ele>
        <time>2012-05-13T07:02:39Z</time>
      </trkpt>
      <trkpt lat="48.3855" lon="6.82615">
        <ele>561.06665039062</ele>
        <time>2012-05-13T07:02:51Z</time>
      </trkpt>
      <trkpt lat="48.38542" lon="6.82605">
        <ele>560.5859375</ele>
        <time>2012-05-13T07:02:56Z</time>
      </trkpt>
      <trkpt lat="48.38533" lon="6.82572">
        <ele>561.54736328125</ele>
        <time>2012-05-13T07:03:08Z</time>
      </trkpt>
      <trkpt lat="48.38527" lon="6.82564">
        <ele>559.14404296875</ele>
        <time>2012-05-13T07:03:12Z</time>
      </trkpt>
      <trkpt lat="48.38518" lon="6.82548">
        <ele>558.66333007812</ele>
        <time>2012-05-13T07:03:17Z</time>
      </trkpt>
      <trkpt lat="48.38512" lon="6.82531">
        <ele>558.18286132812</ele>
        <time>2012-05-13T07:03:24Z</time>
      </trkpt>
      <trkpt lat="48.38509" lon="6.8252">
        <ele>556.26000976562</ele>
        <time>2012-05-13T07:03:31Z</time>
      </trkpt>
      <trkpt lat="48.38505" lon="6.82513">
        <ele>555.29858398438</ele>
        <time>2012-05-13T07:03:35Z</time>
      </trkpt>
      <trkpt lat="48.38496" lon="6.82496">
        <ele>550.4921875</ele>
        <time>2012-05-13T07:03:39Z</time>
      </trkpt>
      <trkpt lat="48.38468" lon="6.82474">
        <ele>548.0888671875</ele>
        <time>2012-05-13T07:03:49Z</time>
      </trkpt>
      <trkpt lat="48.38462" lon="6.82469">
        <ele>546.64685058594</ele>
        <time>2012-05-13T07:03:51Z</time>
      </trkpt>
      <trkpt lat="48.38439" lon="6.82462">
        <ele>544.24365234375</ele>
        <time>2012-05-13T07:03:57Z</time>
      </trkpt>
      <trkpt lat="48.3842" lon="6.82471">
        <ele>541.35949707031</ele>
        <time>2012-05-13T07:04:02Z</time>
      </trkpt>
      <trkpt lat="48.3839" lon="6.82554">
        <ele>544.72424316406</ele>
        <time>2012-05-13T07:04:19Z</time>
      </trkpt>
      <trkpt lat="48.38387" lon="6.8259">
        <ele>548.0888671875</ele>
        <time>2012-05-13T07:04:31Z</time>
      </trkpt>
      <trkpt lat="48.3838" lon="6.82584">
        <ele>548.5693359375</ele>
        <time>2012-05-13T07:04:41Z</time>
      </trkpt>
      <trkpt lat="48.3838" lon="6.82584">
        <ele>547.60815429688</ele>
        <time>2012-05-13T07:04:52Z</time>
      </trkpt>
      <trkpt lat="48.38357" lon="6.82591">
        <ele>546.16625976562</ele>
        <time>2012-05-13T07:05:09Z</time>
      </trkpt>
      <trkpt lat="48.38336" lon="6.82597">
        <ele>544.24365234375</ele>
        <time>2012-05-13T07:05:14Z</time>
      </trkpt>
      <trkpt lat="48.38312" lon="6.82617">
        <ele>542.32092285156</ele>
        <time>2012-05-13T07:05:21Z</time>
      </trkpt>
      <trkpt lat="48.38285" lon="6.82655">
        <ele>539.43688964844</ele>
        <time>2012-05-13T07:05:28Z</time>
      </trkpt>
      <trkpt lat="48.38271" lon="6.82697">
        <ele>537.03369140625</ele>
        <time>2012-05-13T07:05:32Z</time>
      </trkpt>
      <trkpt lat="48.38254" lon="6.82766">
        <ele>532.70776367188</ele>
        <time>2012-05-13T07:05:42Z</time>
      </trkpt>
      <trkpt lat="48.38239" lon="6.82823">
        <ele>531.74633789062</ele>
        <time>2012-05-13T07:05:51Z</time>
      </trkpt>
      <trkpt lat="48.3822" lon="6.82885">
        <ele>529.82373046875</ele>
        <time>2012-05-13T07:06:01Z</time>
      </trkpt>
      <trkpt lat="48.38214" lon="6.82902">
        <ele>529.82373046875</ele>
        <time>2012-05-13T07:06:04Z</time>
      </trkpt>
      <trkpt lat="48.38206" lon="6.82926">
        <ele>527.90100097656</ele>
        <time>2012-05-13T07:06:07Z</time>
      </trkpt>
      <trkpt lat="48.38192" lon="6.82965">
        <ele>527.42041015625</ele>
        <time>2012-05-13T07:06:15Z</time>
      </trkpt>
      <trkpt lat="48.38185" lon="6.82979">
        <ele>528.3818359375</ele>
        <time>2012-05-13T07:06:20Z</time>
      </trkpt>
      <trkpt lat="48.38163" lon="6.83025">
        <ele>526.93981933594</ele>
        <time>2012-05-13T07:06:32Z</time>
      </trkpt>
      <trkpt lat="48.38162" lon="6.83028">
        <ele>526.93981933594</ele>
        <time>2012-05-13T07:06:33Z</time>
      </trkpt>
      <trkpt lat="48.3814" lon="6.83047">
        <ele>525.49780273438</ele>
        <time>2012-05-13T07:06:42Z</time>
      </trkpt>
      <trkpt lat="48.38132" lon="6.83053">
        <ele>525.49780273438</ele>
        <time>2012-05-13T07:06:47Z</time>
      </trkpt>
      <trkpt lat="48.38117" lon="6.83051">
        <ele>527.90100097656</ele>
        <time>2012-05-13T07:06:56Z</time>
      </trkpt>
      <trkpt lat="48.38094" lon="6.83047">
        <ele>528.86254882812</ele>
        <time>2012-05-13T07:07:07Z</time>
      </trkpt>
      <trkpt lat="48.38085" lon="6.83045">
        <ele>529.34313964844</ele>
        <time>2012-05-13T07:07:10Z</time>
      </trkpt>
      <trkpt lat="48.38076" lon="6.83043">
        <ele>529.82373046875</ele>
        <time>2012-05-13T07:07:13Z</time>
      </trkpt>
      <trkpt lat="48.38067" lon="6.83033">
        <ele>529.82373046875</ele>
        <time>2012-05-13T07:07:16Z</time>
      </trkpt>
      <trkpt lat="48.38038" lon="6.82985">
        <ele>531.26574707031</ele>
        <time>2012-05-13T07:07:26Z</time>
      </trkpt>
      <trkpt lat="48.38028" lon="6.8297">
        <ele>531.74633789062</ele>
        <time>2012-05-13T07:07:29Z</time>
      </trkpt>
      <trkpt lat="48.37989" lon="6.82893">
        <ele>532.70776367188</ele>
        <time>2012-05-13T07:07:42Z</time>
      </trkpt>
      <trkpt lat="48.37973" lon="6.82858">
        <ele>531.74633789062</ele>
        <time>2012-05-13T07:07:48Z</time>
      </trkpt>
      <trkpt lat="48.37938" lon="6.82797">
        <ele>529.82373046875</ele>
        <time>2012-05-13T07:07:59Z</time>
      </trkpt>
      <trkpt lat="48.37902" lon="6.82769">
        <ele>527.90100097656</ele>
        <time>2012-05-13T07:08:10Z</time>
      </trkpt>
      <trkpt lat="48.37886" lon="6.82763">
        <ele>528.3818359375</ele>
        <time>2012-05-13T07:08:14Z</time>
      </trkpt>
      <trkpt lat="48.37868" lon="6.82755">
        <ele>529.34313964844</ele>
        <time>2012-05-13T07:08:18Z</time>
      </trkpt>
      <trkpt lat="48.37868" lon="6.82754">
        <ele>528.3818359375</ele>
        <time>2012-05-13T07:08:22Z</time>
      </trkpt>
      <trkpt lat="48.37855" lon="6.82715">
        <ele>528.86254882812</ele>
        <time>2012-05-13T07:08:33Z</time>
      </trkpt>
      <trkpt lat="48.37846" lon="6.82692">
        <ele>528.86254882812</ele>
        <time>2012-05-13T07:08:37Z</time>
      </trkpt>
      <trkpt lat="48.37834" lon="6.8267">
        <ele>528.3818359375</ele>
        <time>2012-05-13T07:08:42Z</time>
      </trkpt>
      <trkpt lat="48.37824" lon="6.82649">
        <ele>527.42041015625</ele>
        <time>2012-05-13T07:08:45Z</time>
      </trkpt>
      <trkpt lat="48.37819" lon="6.82627">
        <ele>525.01721191406</ele>
        <time>2012-05-13T07:08:48Z</time>
      </trkpt>
      <trkpt lat="48.37821" lon="6.82589">
        <ele>523.09460449219</ele>
        <time>2012-05-13T07:08:52Z</time>
      </trkpt>
      <trkpt lat="48.37823" lon="6.82558">
        <ele>521.17199707031</ele>
        <time>2012-05-13T07:08:56Z</time>
      </trkpt>
      <trkpt lat="48.37822" lon="6.82513">
        <ele>518.7685546875</ele>
        <time>2012-05-13T07:09:03Z</time>
      </trkpt>
      <trkpt lat="48.37822" lon="6.82509">
        <ele>518.28784179688</ele>
        <time>2012-05-13T07:09:04Z</time>
      </trkpt>
      <trkpt lat="48.37821" lon="6.82491">
        <ele>516.84594726562</ele>
        <time>2012-05-13T07:09:07Z</time>
      </trkpt>
      <trkpt lat="48.37813" lon="6.82464">
        <ele>513.96203613281</ele>
        <time>2012-05-13T07:09:11Z</time>
      </trkpt>
      <trkpt lat="48.37809" lon="6.82454">
        <ele>512.52001953125</ele>
        <time>2012-05-13T07:09:13Z</time>
      </trkpt>
      <trkpt lat="48.37806" lon="6.82445">
        <ele>511.07800292969</ele>
        <time>2012-05-13T07:09:15Z</time>
      </trkpt>
      <trkpt lat="48.37794" lon="6.82414">
        <ele>508.67468261719</ele>
        <time>2012-05-13T07:09:19Z</time>
      </trkpt>
      <trkpt lat="48.37789" lon="6.82393">
        <ele>506.75207519531</ele>
        <time>2012-05-13T07:09:22Z</time>
      </trkpt>
      <trkpt lat="48.37786" lon="6.8238">
        <ele>504.82946777344</ele>
        <time>2012-05-13T07:09:26Z</time>
      </trkpt>
      <trkpt lat="48.37781" lon="6.82359">
        <ele>503.38745117188</ele>
        <time>2012-05-13T07:09:30Z</time>
      </trkpt>
      <trkpt lat="48.37769" lon="6.82278">
        <ele>499.54223632812</ele>
        <time>2012-05-13T07:09:41Z</time>
      </trkpt>
      <trkpt lat="48.37764" lon="6.82231">
        <ele>498.10034179688</ele>
        <time>2012-05-13T07:09:46Z</time>
      </trkpt>
      <trkpt lat="48.37758" lon="6.8221">
        <ele>498.10034179688</ele>
        <time>2012-05-13T07:09:48Z</time>
      </trkpt>
      <trkpt lat="48.37757" lon="6.8214">
        <ele>494.73559570312</ele>
        <time>2012-05-13T07:09:55Z</time>
      </trkpt>
      <trkpt lat="48.37761" lon="6.82128">
        <ele>493.77429199219</ele>
        <time>2012-05-13T07:09:56Z</time>
      </trkpt>
      <trkpt lat="48.37775" lon="6.8208">
        <ele>490.89038085938</ele>
        <time>2012-05-13T07:10:03Z</time>
      </trkpt>
      <trkpt lat="48.37778" lon="6.82067">
        <ele>490.40979003906</ele>
        <time>2012-05-13T07:10:06Z</time>
      </trkpt>
      <trkpt lat="48.37786" lon="6.82035">
        <ele>489.44836425781</ele>
        <time>2012-05-13T07:10:10Z</time>
      </trkpt>
      <trkpt lat="48.37794" lon="6.82004">
        <ele>487.04504394531</ele>
        <time>2012-05-13T07:10:14Z</time>
      </trkpt>
      <trkpt lat="48.37801" lon="6.81976">
        <ele>485.60302734375</ele>
        <time>2012-05-13T07:10:20Z</time>
      </trkpt>
      <trkpt lat="48.37807" lon="6.81949">
        <ele>483.68041992188</ele>
        <time>2012-05-13T07:10:24Z</time>
      </trkpt>
      <trkpt lat="48.3781" lon="6.81923">
        <ele>480.31591796875</ele>
        <time>2012-05-13T07:10:28Z</time>
      </trkpt>
      <trkpt lat="48.37811" lon="6.81905">
        <ele>478.39318847656</ele>
        <time>2012-05-13T07:10:33Z</time>
      </trkpt>
      <trkpt lat="48.37812" lon="6.81891">
        <ele>477.91247558594</ele>
        <time>2012-05-13T07:10:35Z</time>
      </trkpt>
      <trkpt lat="48.3781" lon="6.81862">
        <ele>476.47058105469</ele>
        <time>2012-05-13T07:10:40Z</time>
      </trkpt>
      <trkpt lat="48.37801" lon="6.81831">
        <ele>475.50927734375</ele>
        <time>2012-05-13T07:10:45Z</time>
      </trkpt>
      <trkpt lat="48.37774" lon="6.81804">
        <ele>469.2607421875</ele>
        <time>2012-05-13T07:10:56Z</time>
      </trkpt>
      <trkpt lat="48.37747" lon="6.81797">
        <ele>461.08947753906</ele>
        <time>2012-05-13T07:11:05Z</time>
      </trkpt>
      <trkpt lat="48.37721" lon="6.81834">
        <ele>455.80224609375</ele>
        <time>2012-05-13T07:11:14Z</time>
      </trkpt>
      <trkpt lat="48.37709" lon="6.81864">
        <ele>453.39892578125</ele>
        <time>2012-05-13T07:11:19Z</time>
      </trkpt>
      <trkpt lat="48.37697" lon="6.81889">
        <ele>450.51501464844</ele>
        <time>2012-05-13T07:11:23Z</time>
      </trkpt>
      <trkpt lat="48.37688" lon="6.81906">
        <ele>447.63098144531</ele>
        <time>2012-05-13T07:11:26Z</time>
      </trkpt>
      <trkpt lat="48.37634" lon="6.81986">
        <ele>440.42126464844</ele>
        <time>2012-05-13T07:11:39Z</time>
      </trkpt>
      <trkpt lat="48.37603" lon="6.81989">
        <ele>438.49853515625</ele>
        <time>2012-05-13T07:11:45Z</time>
      </trkpt>
      <trkpt lat="48.37584" lon="6.82007">
        <ele>436.57592773438</ele>
        <time>2012-05-13T07:11:52Z</time>
      </trkpt>
      <trkpt lat="48.37585" lon="6.82013">
        <ele>437.05651855469</ele>
        <time>2012-05-13T07:11:53Z</time>
      </trkpt>
      <trkpt lat="48.3759" lon="6.82037">
        <ele>435.61450195312</ele>
        <time>2012-05-13T07:11:57Z</time>
      </trkpt>
      <trkpt lat="48.37596" lon="6.82076">
        <ele>436.09521484375</ele>
        <time>2012-05-13T07:12:03Z</time>
      </trkpt>
      <trkpt lat="48.37595" lon="6.82137">
        <ele>436.09521484375</ele>
        <time>2012-05-13T07:12:14Z</time>
      </trkpt>
      <trkpt lat="48.37594" lon="6.82153">
        <ele>435.61450195312</ele>
        <time>2012-05-13T07:12:17Z</time>
      </trkpt>
      <trkpt lat="48.3759" lon="6.82187">
        <ele>435.13391113281</ele>
        <time>2012-05-13T07:12:24Z</time>
      </trkpt>
      <trkpt lat="48.37596" lon="6.82243">
        <ele>437.05651855469</ele>
        <time>2012-05-13T07:12:36Z</time>
      </trkpt>
      <trkpt lat="48.37596" lon="6.82267">
        <ele>437.05651855469</ele>
        <time>2012-05-13T07:12:40Z</time>
      </trkpt>
      <trkpt lat="48.37596" lon="6.82282">
        <ele>437.537109375</ele>
        <time>2012-05-13T07:12:43Z</time>
      </trkpt>
      <trkpt lat="48.376" lon="6.82327">
        <ele>440.90185546875</ele>
        <time>2012-05-13T07:12:53Z</time>
      </trkpt>
      <trkpt lat="48.37601" lon="6.82336">
        <ele>441.38244628906</ele>
        <time>2012-05-13T07:12:56Z</time>
      </trkpt>
      <trkpt lat="48.37604" lon="6.82357">
        <ele>442.82446289062</ele>
        <time>2012-05-13T07:13:01Z</time>
      </trkpt>
      <trkpt lat="48.37607" lon="6.82376">
        <ele>444.26647949219</ele>
        <time>2012-05-13T07:13:06Z</time>
      </trkpt>
      <trkpt lat="48.37611" lon="6.82394">
        <ele>448.59240722656</ele>
        <time>2012-05-13T07:13:18Z</time>
      </trkpt>
      <trkpt lat="48.37616" lon="6.82411">
        <ele>449.07299804688</ele>
        <time>2012-05-13T07:13:28Z</time>
      </trkpt>
      <trkpt lat="48.37624" lon="6.82438">
        <ele>454.36022949219</ele>
        <time>2012-05-13T07:13:37Z</time>
      </trkpt>
      <trkpt lat="48.37626" lon="6.82447">
        <ele>456.28295898438</ele>
        <time>2012-05-13T07:13:40Z</time>
      </trkpt>
      <trkpt lat="48.37626" lon="6.82447">
        <ele>458.68615722656</ele>
        <time>2012-05-13T07:13:44Z</time>
      </trkpt>
      <trkpt lat="48.37629" lon="6.82458">
        <ele>460.12817382812</ele>
        <time>2012-05-13T07:13:47Z</time>
      </trkpt>
      <trkpt lat="48.3763" lon="6.82462">
        <ele>460.60876464844</ele>
        <time>2012-05-13T07:13:49Z</time>
      </trkpt>
      <trkpt lat="48.37637" lon="6.82486">
        <ele>460.12817382812</ele>
        <time>2012-05-13T07:13:56Z</time>
      </trkpt>
      <trkpt lat="48.37637" lon="6.82486">
        <ele>461.08947753906</ele>
        <time>2012-05-13T07:14:03Z</time>
      </trkpt>
      <trkpt lat="48.37644" lon="6.82507">
        <ele>463.01208496094</ele>
        <time>2012-05-13T07:14:14Z</time>
      </trkpt>
      <trkpt lat="48.37649" lon="6.82522">
        <ele>463.01208496094</ele>
        <time>2012-05-13T07:14:20Z</time>
      </trkpt>
      <trkpt lat="48.37652" lon="6.82532">
        <ele>463.49279785156</ele>
        <time>2012-05-13T07:14:27Z</time>
      </trkpt>
      <trkpt lat="48.37663" lon="6.82565">
        <ele>460.60876464844</ele>
        <time>2012-05-13T07:14:40Z</time>
      </trkpt>
      <trkpt lat="48.37663" lon="6.82567">
        <ele>460.60876464844</ele>
        <time>2012-05-13T07:14:41Z</time>
      </trkpt>
      <trkpt lat="48.37665" lon="6.82571">
        <ele>461.57019042969</ele>
        <time>2012-05-13T07:14:44Z</time>
      </trkpt>
      <trkpt lat="48.37677" lon="6.82602">
        <ele>463.01208496094</ele>
        <time>2012-05-13T07:14:55Z</time>
      </trkpt>
      <trkpt lat="48.37679" lon="6.82608">
        <ele>463.49279785156</ele>
        <time>2012-05-13T07:14:57Z</time>
      </trkpt>
      <trkpt lat="48.37693" lon="6.82647">
        <ele>464.4541015625</ele>
        <time>2012-05-13T07:15:08Z</time>
      </trkpt>
      <trkpt lat="48.37694" lon="6.82655">
        <ele>463.97338867188</ele>
        <time>2012-05-13T07:15:10Z</time>
      </trkpt>
      <trkpt lat="48.37699" lon="6.82684">
        <ele>464.93481445312</ele>
        <time>2012-05-13T07:15:17Z</time>
      </trkpt>
      <trkpt lat="48.377" lon="6.82695">
        <ele>464.93481445312</ele>
        <time>2012-05-13T07:15:20Z</time>
      </trkpt>
      <trkpt lat="48.37694" lon="6.82755">
        <ele>464.4541015625</ele>
        <time>2012-05-13T07:15:33Z</time>
      </trkpt>
      <trkpt lat="48.37681" lon="6.82795">
        <ele>462.53137207031</ele>
        <time>2012-05-13T07:15:43Z</time>
      </trkpt>
      <trkpt lat="48.3767" lon="6.82821">
        <ele>459.64758300781</ele>
        <time>2012-05-13T07:15:53Z</time>
      </trkpt>
      <trkpt lat="48.37667" lon="6.82829">
        <ele>457.72497558594</ele>
        <time>2012-05-13T07:16:03Z</time>
      </trkpt>
      <trkpt lat="48.37651" lon="6.82877">
        <ele>454.36022949219</ele>
        <time>2012-05-13T07:16:16Z</time>
      </trkpt>
      <trkpt lat="48.3765" lon="6.82881">
        <ele>454.36022949219</ele>
        <time>2012-05-13T07:16:17Z</time>
      </trkpt>
      <trkpt lat="48.37645" lon="6.82897">
        <ele>453.39892578125</ele>
        <time>2012-05-13T07:16:21Z</time>
      </trkpt>
      <trkpt lat="48.37646" lon="6.8291">
        <ele>450.51501464844</ele>
        <time>2012-05-13T07:16:27Z</time>
      </trkpt>
      <trkpt lat="48.37649" lon="6.82934">
        <ele>450.03442382812</ele>
        <time>2012-05-13T07:16:35Z</time>
      </trkpt>
      <trkpt lat="48.3765" lon="6.82943">
        <ele>450.03442382812</ele>
        <time>2012-05-13T07:16:39Z</time>
      </trkpt>
      <trkpt lat="48.37652" lon="6.82958">
        <ele>451.95703125</ele>
        <time>2012-05-13T07:16:46Z</time>
      </trkpt>
      <trkpt lat="48.37659" lon="6.82992">
        <ele>454.8408203125</ele>
        <time>2012-05-13T07:16:54Z</time>
      </trkpt>
      <trkpt lat="48.37659" lon="6.82992">
        <ele>455.32153320312</ele>
        <time>2012-05-13T07:17:03Z</time>
      </trkpt>
      <trkpt lat="48.37659" lon="6.82992">
        <ele>455.32153320312</ele>
        <time>2012-05-13T07:17:09Z</time>
      </trkpt>
      <trkpt lat="48.37676" lon="6.83039">
        <ele>456.28295898438</ele>
        <time>2012-05-13T07:17:21Z</time>
      </trkpt>
      <trkpt lat="48.37679" lon="6.83049">
        <ele>456.28295898438</ele>
        <time>2012-05-13T07:17:24Z</time>
      </trkpt>
      <trkpt lat="48.37683" lon="6.83059">
        <ele>456.28295898438</ele>
        <time>2012-05-13T07:17:27Z</time>
      </trkpt>
      <trkpt lat="48.37692" lon="6.83089">
        <ele>456.28295898438</ele>
        <time>2012-05-13T07:17:34Z</time>
      </trkpt>
      <trkpt lat="48.37696" lon="6.83101">
        <ele>455.80224609375</ele>
        <time>2012-05-13T07:17:38Z</time>
      </trkpt>
      <trkpt lat="48.37698" lon="6.83114">
        <ele>457.24426269531</ele>
        <time>2012-05-13T07:17:46Z</time>
      </trkpt>
      <trkpt lat="48.37698" lon="6.83114">
        <ele>458.20556640625</ele>
        <time>2012-05-13T07:17:49Z</time>
      </trkpt>
      <trkpt lat="48.37695" lon="6.83128">
        <ele>459.64758300781</ele>
        <time>2012-05-13T07:17:52Z</time>
      </trkpt>
      <trkpt lat="48.37681" lon="6.83156">
        <ele>463.01208496094</ele>
        <time>2012-05-13T07:18:01Z</time>
      </trkpt>
      <trkpt lat="48.3768" lon="6.83158">
        <ele>464.93481445312</ele>
        <time>2012-05-13T07:18:04Z</time>
      </trkpt>
      <trkpt lat="48.37661" lon="6.83185">
        <ele>469.2607421875</ele>
        <time>2012-05-13T07:18:15Z</time>
      </trkpt>
      <trkpt lat="48.37644" lon="6.8321">
        <ele>473.58666992188</ele>
        <time>2012-05-13T07:18:28Z</time>
      </trkpt>
      <trkpt lat="48.37642" lon="6.83212">
        <ele>474.06726074219</ele>
        <time>2012-05-13T07:18:29Z</time>
      </trkpt>
      <trkpt lat="48.37627" lon="6.83236">
        <ele>475.02868652344</ele>
        <time>2012-05-13T07:18:40Z</time>
      </trkpt>
      <trkpt lat="48.37627" lon="6.83236">
        <ele>475.98986816406</ele>
        <time>2012-05-13T07:18:51Z</time>
      </trkpt>
      <trkpt lat="48.37627" lon="6.83236">
        <ele>476.47058105469</ele>
        <time>2012-05-13T07:18:53Z</time>
      </trkpt>
      <trkpt lat="48.37613" lon="6.83259">
        <ele>476.95129394531</ele>
        <time>2012-05-13T07:19:04Z</time>
      </trkpt>
      <trkpt lat="48.37613" lon="6.83259">
        <ele>476.47058105469</ele>
        <time>2012-05-13T07:19:18Z</time>
      </trkpt>
      <trkpt lat="48.37613" lon="6.83259">
        <ele>475.02868652344</ele>
        <time>2012-05-13T07:19:22Z</time>
      </trkpt>
      <trkpt lat="48.37613" lon="6.83272">
        <ele>474.54797363281</ele>
        <time>2012-05-13T07:19:25Z</time>
      </trkpt>
      <trkpt lat="48.37613" lon="6.83291">
        <ele>474.54797363281</ele>
        <time>2012-05-13T07:19:33Z</time>
      </trkpt>
      <trkpt lat="48.37613" lon="6.83303">
        <ele>475.50927734375</ele>
        <time>2012-05-13T07:19:37Z</time>
      </trkpt>
      <trkpt lat="48.37613" lon="6.83313">
        <ele>475.50927734375</ele>
        <time>2012-05-13T07:19:41Z</time>
      </trkpt>
      <trkpt lat="48.37613" lon="6.83315">
        <ele>475.98986816406</ele>
        <time>2012-05-13T07:19:43Z</time>
      </trkpt>
      <trkpt lat="48.37613" lon="6.83322">
        <ele>476.47058105469</ele>
        <time>2012-05-13T07:19:46Z</time>
      </trkpt>
      <trkpt lat="48.37613" lon="6.83333">
        <ele>478.39318847656</ele>
        <time>2012-05-13T07:19:50Z</time>
      </trkpt>
      <trkpt lat="48.37613" lon="6.83335">
        <ele>478.87390136719</ele>
        <time>2012-05-13T07:19:53Z</time>
      </trkpt>
      <trkpt lat="48.37625" lon="6.83349">
        <ele>478.39318847656</ele>
        <time>2012-05-13T07:20:04Z</time>
      </trkpt>
      <trkpt lat="48.37634" lon="6.83361">
        <ele>479.3544921875</ele>
        <time>2012-05-13T07:20:08Z</time>
      </trkpt>
      <trkpt lat="48.3764" lon="6.83369">
        <ele>478.39318847656</ele>
        <time>2012-05-13T07:20:18Z</time>
      </trkpt>
      <trkpt lat="48.37644" lon="6.83373">
        <ele>477.43188476562</ele>
        <time>2012-05-13T07:20:23Z</time>
      </trkpt>
      <trkpt lat="48.37644" lon="6.83373">
        <ele>478.87390136719</ele>
        <time>2012-05-13T07:20:28Z</time>
      </trkpt>
      <trkpt lat="48.37661" lon="6.83392">
        <ele>483.68041992188</ele>
        <time>2012-05-13T07:20:40Z</time>
      </trkpt>
      <trkpt lat="48.37661" lon="6.83392">
        <ele>486.564453125</ele>
        <time>2012-05-13T07:20:45Z</time>
      </trkpt>
      <trkpt lat="48.37661" lon="6.83392">
        <ele>487.52563476562</ele>
        <time>2012-05-13T07:20:47Z</time>
      </trkpt>
      <trkpt lat="48.37673" lon="6.83405">
        <ele>489.92907714844</ele>
        <time>2012-05-13T07:20:53Z</time>
      </trkpt>
      <trkpt lat="48.37672" lon="6.83465">
        <ele>496.177734375</ele>
        <time>2012-05-13T07:21:11Z</time>
      </trkpt>
      <trkpt lat="48.37674" lon="6.83473">
        <ele>497.13891601562</ele>
        <time>2012-05-13T07:21:15Z</time>
      </trkpt>
      <trkpt lat="48.37674" lon="6.83475">
        <ele>497.13891601562</ele>
        <time>2012-05-13T07:21:17Z</time>
      </trkpt>
      <trkpt lat="48.37676" lon="6.83481">
        <ele>497.61962890625</ele>
        <time>2012-05-13T07:21:21Z</time>
      </trkpt>
      <trkpt lat="48.37678" lon="6.83491">
        <ele>498.10034179688</ele>
        <time>2012-05-13T07:21:26Z</time>
      </trkpt>
      <trkpt lat="48.37678" lon="6.83494">
        <ele>498.58093261719</ele>
        <time>2012-05-13T07:21:29Z</time>
      </trkpt>
      <trkpt lat="48.37724" lon="6.83474">
        <ele>499.0615234375</ele>
        <time>2012-05-13T07:21:38Z</time>
      </trkpt>
      <trkpt lat="48.37724" lon="6.83474">
        <ele>499.0615234375</ele>
        <time>2012-05-13T07:21:41Z</time>
      </trkpt>
      <trkpt lat="48.37731" lon="6.83485">
        <ele>500.98413085938</ele>
        <time>2012-05-13T07:21:48Z</time>
      </trkpt>
      <trkpt lat="48.37735" lon="6.83492">
        <ele>501.46484375</ele>
        <time>2012-05-13T07:21:51Z</time>
      </trkpt>
      <trkpt lat="48.37737" lon="6.83495">
        <ele>504.34887695312</ele>
        <time>2012-05-13T07:21:55Z</time>
      </trkpt>
      <trkpt lat="48.37741" lon="6.83501">
        <ele>508.19409179688</ele>
        <time>2012-05-13T07:22:01Z</time>
      </trkpt>
      <trkpt lat="48.37751" lon="6.83517">
        <ele>511.55871582031</ele>
        <time>2012-05-13T07:22:13Z</time>
      </trkpt>
      <trkpt lat="48.37751" lon="6.83517">
        <ele>514.44262695312</ele>
        <time>2012-05-13T07:22:27Z</time>
      </trkpt>
      <trkpt lat="48.37751" lon="6.83517">
        <ele>514.44262695312</ele>
        <time>2012-05-13T07:22:51Z</time>
      </trkpt>
      <trkpt lat="48.37751" lon="6.83517">
        <ele>514.92333984375</ele>
        <time>2012-05-13T07:23:23Z</time>
      </trkpt>
      <trkpt lat="48.37751" lon="6.83517">
        <ele>514.92333984375</ele>
        <time>2012-05-13T07:23:30Z</time>
      </trkpt>
      <trkpt lat="48.37773" lon="6.83552">
        <ele>514.44262695312</ele>
        <time>2012-05-13T07:23:43Z</time>
      </trkpt>
      <trkpt lat="48.37786" lon="6.83573">
        <ele>515.88464355469</ele>
        <time>2012-05-13T07:23:54Z</time>
      </trkpt>
      <trkpt lat="48.37787" lon="6.83575">
        <ele>515.88464355469</ele>
        <time>2012-05-13T07:23:56Z</time>
      </trkpt>
      <trkpt lat="48.37792" lon="6.83593">
        <ele>517.80725097656</ele>
        <time>2012-05-13T07:24:05Z</time>
      </trkpt>
      <trkpt lat="48.37794" lon="6.83599">
        <ele>518.7685546875</ele>
        <time>2012-05-13T07:24:09Z</time>
      </trkpt>
      <trkpt lat="48.37796" lon="6.83603">
        <ele>520.21057128906</ele>
        <time>2012-05-13T07:24:18Z</time>
      </trkpt>
      <trkpt lat="48.37802" lon="6.83622">
        <ele>521.65258789062</ele>
        <time>2012-05-13T07:24:23Z</time>
      </trkpt>
      <trkpt lat="48.37802" lon="6.83629">
        <ele>523.09460449219</ele>
        <time>2012-05-13T07:24:29Z</time>
      </trkpt>
      <trkpt lat="48.37803" lon="6.83661">
        <ele>525.97839355469</ele>
        <time>2012-05-13T07:24:39Z</time>
      </trkpt>
      <trkpt lat="48.37795" lon="6.83685">
        <ele>525.97839355469</ele>
        <time>2012-05-13T07:24:47Z</time>
      </trkpt>
      <trkpt lat="48.37794" lon="6.83687">
        <ele>527.42041015625</ele>
        <time>2012-05-13T07:24:51Z</time>
      </trkpt>
      <trkpt lat="48.37765" lon="6.83701">
        <ele>531.74633789062</ele>
        <time>2012-05-13T07:25:07Z</time>
      </trkpt>
      <trkpt lat="48.3774" lon="6.83708">
        <ele>531.26574707031</ele>
        <time>2012-05-13T07:25:18Z</time>
      </trkpt>
      <trkpt lat="48.37715" lon="6.83709">
        <ele>533.6689453125</ele>
        <time>2012-05-13T07:25:30Z</time>
      </trkpt>
      <trkpt lat="48.37685" lon="6.83821">
        <ele>537.03369140625</ele>
        <time>2012-05-13T07:25:43Z</time>
      </trkpt>
      <trkpt lat="48.3766" lon="6.83864">
        <ele>536.55310058594</ele>
        <time>2012-05-13T07:25:56Z</time>
      </trkpt>
      <trkpt lat="48.3764" lon="6.83897">
        <ele>535.59155273438</ele>
        <time>2012-05-13T07:26:04Z</time>
      </trkpt>
      <trkpt lat="48.37646" lon="6.83976">
        <ele>535.59155273438</ele>
        <time>2012-05-13T07:26:07Z</time>
      </trkpt>
      <trkpt lat="48.3763" lon="6.83985">
        <ele>534.14965820312</ele>
        <time>2012-05-13T07:26:11Z</time>
      </trkpt>
      <trkpt lat="48.37619" lon="6.83991">
        <ele>533.18835449219</ele>
        <time>2012-05-13T07:26:13Z</time>
      </trkpt>
      <trkpt lat="48.37597" lon="6.84006">
        <ele>531.26574707031</ele>
        <time>2012-05-13T07:26:18Z</time>
      </trkpt>
      <trkpt lat="48.37576" lon="6.84021">
        <ele>530.78515625</ele>
        <time>2012-05-13T07:26:23Z</time>
      </trkpt>
      <trkpt lat="48.37535" lon="6.84047">
        <ele>524.53649902344</ele>
        <time>2012-05-13T07:26:32Z</time>
      </trkpt>
      <trkpt lat="48.37526" lon="6.84053">
        <ele>524.53649902344</ele>
        <time>2012-05-13T07:26:34Z</time>
      </trkpt>
      <trkpt lat="48.37513" lon="6.84064">
        <ele>523.5751953125</ele>
        <time>2012-05-13T07:26:38Z</time>
      </trkpt>
      <trkpt lat="48.37496" lon="6.84093">
        <ele>523.09460449219</ele>
        <time>2012-05-13T07:26:46Z</time>
      </trkpt>
      <trkpt lat="48.37488" lon="6.84109">
        <ele>523.09460449219</ele>
        <time>2012-05-13T07:26:49Z</time>
      </trkpt>
      <trkpt lat="48.3746" lon="6.84151">
        <ele>525.01721191406</ele>
        <time>2012-05-13T07:26:59Z</time>
      </trkpt>
      <trkpt lat="48.37452" lon="6.84177">
        <ele>524.53649902344</ele>
        <time>2012-05-13T07:27:03Z</time>
      </trkpt>
      <trkpt lat="48.3745" lon="6.84198">
        <ele>525.01721191406</ele>
        <time>2012-05-13T07:27:06Z</time>
      </trkpt>
      <trkpt lat="48.37451" lon="6.84215">
        <ele>525.01721191406</ele>
        <time>2012-05-13T07:27:14Z</time>
      </trkpt>
      <trkpt lat="48.37455" lon="6.84247">
        <ele>522.13317871094</ele>
        <time>2012-05-13T07:27:26Z</time>
      </trkpt>
      <trkpt lat="48.37465" lon="6.84317">
        <ele>521.17199707031</ele>
        <time>2012-05-13T07:27:34Z</time>
      </trkpt>
      <trkpt lat="48.37469" lon="6.84347">
        <ele>520.69128417969</ele>
        <time>2012-05-13T07:27:37Z</time>
      </trkpt>
      <trkpt lat="48.37473" lon="6.84377">
        <ele>519.24926757812</ele>
        <time>2012-05-13T07:27:41Z</time>
      </trkpt>
      <trkpt lat="48.37471" lon="6.84395">
        <ele>518.7685546875</ele>
        <time>2012-05-13T07:27:43Z</time>
      </trkpt>
      <trkpt lat="48.37469" lon="6.84424">
        <ele>519.72985839844</ele>
        <time>2012-05-13T07:27:47Z</time>
      </trkpt>
      <trkpt lat="48.37471" lon="6.84448">
        <ele>522.13317871094</ele>
        <time>2012-05-13T07:27:52Z</time>
      </trkpt>
      <trkpt lat="48.37475" lon="6.84495">
        <ele>526.45910644531</ele>
        <time>2012-05-13T07:28:04Z</time>
      </trkpt>
      <trkpt lat="48.37475" lon="6.84501">
        <ele>526.93981933594</ele>
        <time>2012-05-13T07:28:06Z</time>
      </trkpt>
      <trkpt lat="48.37482" lon="6.84531">
        <ele>532.70776367188</ele>
        <time>2012-05-13T07:28:14Z</time>
      </trkpt>
      <trkpt lat="48.37488" lon="6.84549">
        <ele>537.03369140625</ele>
        <time>2012-05-13T07:28:20Z</time>
      </trkpt>
      <trkpt lat="48.37491" lon="6.84562">
        <ele>542.32092285156</ele>
        <time>2012-05-13T07:28:27Z</time>
      </trkpt>
      <trkpt lat="48.3749" lon="6.84599">
        <ele>544.72424316406</ele>
        <time>2012-05-13T07:28:34Z</time>
      </trkpt>
      <trkpt lat="48.37501" lon="6.84654">
        <ele>549.53076171875</ele>
        <time>2012-05-13T07:28:48Z</time>
      </trkpt>
      <trkpt lat="48.37495" lon="6.84709">
        <ele>551.93408203125</ele>
        <time>2012-05-13T07:29:01Z</time>
      </trkpt>
      <trkpt lat="48.37495" lon="6.84723">
        <ele>551.93408203125</ele>
        <time>2012-05-13T07:29:04Z</time>
      </trkpt>
      <trkpt lat="48.37499" lon="6.8477">
        <ele>545.20483398438</ele>
        <time>2012-05-13T07:29:12Z</time>
      </trkpt>
      <trkpt lat="48.37505" lon="6.84811">
        <ele>540.87890625</ele>
        <time>2012-05-13T07:29:18Z</time>
      </trkpt>
      <trkpt lat="48.375" lon="6.84853">
        <ele>530.78515625</ele>
        <time>2012-05-13T07:29:29Z</time>
      </trkpt>
      <trkpt lat="48.37496" lon="6.84868">
        <ele>529.34313964844</ele>
        <time>2012-05-13T07:29:35Z</time>
      </trkpt>
      <trkpt lat="48.37493" lon="6.84876">
        <ele>528.86254882812</ele>
        <time>2012-05-13T07:29:38Z</time>
      </trkpt>
      <trkpt lat="48.37492" lon="6.8488">
        <ele>529.34313964844</ele>
        <time>2012-05-13T07:29:41Z</time>
      </trkpt>
      <trkpt lat="48.37488" lon="6.8489">
        <ele>528.3818359375</ele>
        <time>2012-05-13T07:29:45Z</time>
      </trkpt>
      <trkpt lat="48.3748" lon="6.84912">
        <ele>527.90100097656</ele>
        <time>2012-05-13T07:29:52Z</time>
      </trkpt>
      <trkpt lat="48.37478" lon="6.84917">
        <ele>526.93981933594</ele>
        <time>2012-05-13T07:29:55Z</time>
      </trkpt>
      <trkpt lat="48.37528" lon="6.84959">
        <ele>529.34313964844</ele>
        <time>2012-05-13T07:30:06Z</time>
      </trkpt>
      <trkpt lat="48.3753" lon="6.8497">
        <ele>528.3818359375</ele>
        <time>2012-05-13T07:30:10Z</time>
      </trkpt>
      <trkpt lat="48.37531" lon="6.8498">
        <ele>530.78515625</ele>
        <time>2012-05-13T07:30:15Z</time>
      </trkpt>
      <trkpt lat="48.37536" lon="6.84988">
        <ele>532.22705078125</ele>
        <time>2012-05-13T07:30:24Z</time>
      </trkpt>
      <trkpt lat="48.37538" lon="6.84993">
        <ele>533.18835449219</ele>
        <time>2012-05-13T07:30:27Z</time>
      </trkpt>
      <trkpt lat="48.37501" lon="6.85039">
        <ele>533.18835449219</ele>
        <time>2012-05-13T07:30:31Z</time>
      </trkpt>
      <trkpt lat="48.37501" lon="6.85046">
        <ele>533.6689453125</ele>
        <time>2012-05-13T07:30:33Z</time>
      </trkpt>
      <trkpt lat="48.37504" lon="6.85062">
        <ele>535.59155273438</ele>
        <time>2012-05-13T07:30:40Z</time>
      </trkpt>
      <trkpt lat="48.37502" lon="6.85104">
        <ele>537.51428222656</ele>
        <time>2012-05-13T07:30:54Z</time>
      </trkpt>
      <trkpt lat="48.37504" lon="6.85111">
        <ele>538.95629882812</ele>
        <time>2012-05-13T07:30:57Z</time>
      </trkpt>
      <trkpt lat="48.37511" lon="6.85143">
        <ele>539.43688964844</ele>
        <time>2012-05-13T07:31:08Z</time>
      </trkpt>
      <trkpt lat="48.3752" lon="6.85161">
        <ele>538.47570800781</ele>
        <time>2012-05-13T07:31:15Z</time>
      </trkpt>
      <trkpt lat="48.37522" lon="6.85174">
        <ele>538.95629882812</ele>
        <time>2012-05-13T07:31:18Z</time>
      </trkpt>
      <trkpt lat="48.37522" lon="6.85192">
        <ele>538.47570800781</ele>
        <time>2012-05-13T07:31:23Z</time>
      </trkpt>
      <trkpt lat="48.3752" lon="6.85205">
        <ele>538.95629882812</ele>
        <time>2012-05-13T07:31:26Z</time>
      </trkpt>
      <trkpt lat="48.37518" lon="6.85231">
        <ele>538.47570800781</ele>
        <time>2012-05-13T07:31:32Z</time>
      </trkpt>
      <trkpt lat="48.37514" lon="6.85247">
        <ele>538.95629882812</ele>
        <time>2012-05-13T07:31:36Z</time>
      </trkpt>
      <trkpt lat="48.37516" lon="6.85295">
        <ele>540.39831542969</ele>
        <time>2012-05-13T07:31:46Z</time>
      </trkpt>
      <trkpt lat="48.37529" lon="6.85328">
        <ele>541.35949707031</ele>
        <time>2012-05-13T07:31:51Z</time>
      </trkpt>
      <trkpt lat="48.37533" lon="6.85388">
        <ele>541.35949707031</ele>
        <time>2012-05-13T07:31:59Z</time>
      </trkpt>
      <trkpt lat="48.37532" lon="6.85421">
        <ele>542.32092285156</ele>
        <time>2012-05-13T07:32:04Z</time>
      </trkpt>
      <trkpt lat="48.37531" lon="6.85446">
        <ele>541.84020996094</ele>
        <time>2012-05-13T07:32:07Z</time>
      </trkpt>
      <trkpt lat="48.3753" lon="6.85479">
        <ele>541.35949707031</ele>
        <time>2012-05-13T07:32:10Z</time>
      </trkpt>
      <trkpt lat="48.37532" lon="6.85495">
        <ele>541.35949707031</ele>
        <time>2012-05-13T07:32:12Z</time>
      </trkpt>
      <trkpt lat="48.3754" lon="6.85548">
        <ele>540.87890625</ele>
        <time>2012-05-13T07:32:18Z</time>
      </trkpt>
      <trkpt lat="48.3755" lon="6.85581">
        <ele>539.91760253906</ele>
        <time>2012-05-13T07:32:22Z</time>
      </trkpt>
      <trkpt lat="48.3756" lon="6.85617">
        <ele>537.03369140625</ele>
        <time>2012-05-13T07:32:26Z</time>
      </trkpt>
      <trkpt lat="48.37567" lon="6.85644">
        <ele>534.63037109375</ele>
        <time>2012-05-13T07:32:29Z</time>
      </trkpt>
      <trkpt lat="48.37572" lon="6.85668">
        <ele>531.26574707031</ele>
        <time>2012-05-13T07:32:36Z</time>
      </trkpt>
      <trkpt lat="48.37572" lon="6.85668">
        <ele>528.86254882812</ele>
        <time>2012-05-13T07:32:49Z</time>
      </trkpt>
      <trkpt lat="48.37573" lon="6.85678">
        <ele>523.09460449219</ele>
        <time>2012-05-13T07:33:01Z</time>
      </trkpt>
      <trkpt lat="48.37575" lon="6.85703">
        <ele>518.28784179688</ele>
        <time>2012-05-13T07:33:08Z</time>
      </trkpt>
      <trkpt lat="48.37584" lon="6.85731">
        <ele>513.4814453125</ele>
        <time>2012-05-13T07:33:16Z</time>
      </trkpt>
      <trkpt lat="48.37588" lon="6.85742">
        <ele>511.07800292969</ele>
        <time>2012-05-13T07:33:20Z</time>
      </trkpt>
      <trkpt lat="48.37596" lon="6.85768">
        <ele>508.67468261719</ele>
        <time>2012-05-13T07:33:25Z</time>
      </trkpt>
      <trkpt lat="48.37598" lon="6.85802">
        <ele>505.31018066406</ele>
        <time>2012-05-13T07:33:28Z</time>
      </trkpt>
      <trkpt lat="48.376" lon="6.85822">
        <ele>500.98413085938</ele>
        <time>2012-05-13T07:33:32Z</time>
      </trkpt>
      <trkpt lat="48.376" lon="6.85822">
        <ele>497.61962890625</ele>
        <time>2012-05-13T07:33:36Z</time>
      </trkpt>
      <trkpt lat="48.37643" lon="6.8588">
        <ele>492.33239746094</ele>
        <time>2012-05-13T07:33:44Z</time>
      </trkpt>
      <trkpt lat="48.37644" lon="6.85888">
        <ele>490.89038085938</ele>
        <time>2012-05-13T07:33:55Z</time>
      </trkpt>
      <trkpt lat="48.37652" lon="6.85904">
        <ele>488.48718261719</ele>
        <time>2012-05-13T07:34:02Z</time>
      </trkpt>
      <trkpt lat="48.37653" lon="6.85916">
        <ele>488.48718261719</ele>
        <time>2012-05-13T07:34:08Z</time>
      </trkpt>
      <trkpt lat="48.37657" lon="6.85921">
        <ele>489.44836425781</ele>
        <time>2012-05-13T07:34:21Z</time>
      </trkpt>
      <trkpt lat="48.37662" lon="6.85923">
        <ele>489.92907714844</ele>
        <time>2012-05-13T07:34:27Z</time>
      </trkpt>
      <trkpt lat="48.37665" lon="6.85924">
        <ele>490.40979003906</ele>
        <time>2012-05-13T07:34:29Z</time>
      </trkpt>
      <trkpt lat="48.37674" lon="6.85926">
        <ele>488.9677734375</ele>
        <time>2012-05-13T07:34:40Z</time>
      </trkpt>
      <trkpt lat="48.3768" lon="6.85928">
        <ele>490.40979003906</ele>
        <time>2012-05-13T07:34:43Z</time>
      </trkpt>
      <trkpt lat="48.37688" lon="6.85939">
        <ele>491.37097167969</ele>
        <time>2012-05-13T07:34:49Z</time>
      </trkpt>
      <trkpt lat="48.37693" lon="6.85965">
        <ele>490.40979003906</ele>
        <time>2012-05-13T07:34:57Z</time>
      </trkpt>
      <trkpt lat="48.377" lon="6.86012">
        <ele>490.89038085938</ele>
        <time>2012-05-13T07:35:10Z</time>
      </trkpt>
      <trkpt lat="48.37699" lon="6.86039">
        <ele>491.37097167969</ele>
        <time>2012-05-13T07:35:17Z</time>
      </trkpt>
      <trkpt lat="48.37703" lon="6.86085">
        <ele>491.37097167969</ele>
        <time>2012-05-13T07:35:29Z</time>
      </trkpt>
      <trkpt lat="48.37706" lon="6.86101">
        <ele>491.37097167969</ele>
        <time>2012-05-13T07:35:34Z</time>
      </trkpt>
      <trkpt lat="48.37697" lon="6.86147">
        <ele>491.85168457031</ele>
        <time>2012-05-13T07:35:46Z</time>
      </trkpt>
      <trkpt lat="48.37689" lon="6.86177">
        <ele>498.10034179688</ele>
        <time>2012-05-13T07:35:56Z</time>
      </trkpt>
      <trkpt lat="48.37684" lon="6.86183">
        <ele>499.54223632812</ele>
        <time>2012-05-13T07:36:06Z</time>
      </trkpt>
      <trkpt lat="48.37678" lon="6.86196">
        <ele>499.0615234375</ele>
        <time>2012-05-13T07:36:10Z</time>
      </trkpt>
      <trkpt lat="48.37673" lon="6.86204">
        <ele>500.02294921875</ele>
        <time>2012-05-13T07:36:13Z</time>
      </trkpt>
      <trkpt lat="48.37666" lon="6.86215">
        <ele>499.54223632812</ele>
        <time>2012-05-13T07:36:19Z</time>
      </trkpt>
      <trkpt lat="48.37664" lon="6.86227">
        <ele>500.98413085938</ele>
        <time>2012-05-13T07:36:25Z</time>
      </trkpt>
      <trkpt lat="48.3766" lon="6.86253">
        <ele>501.46484375</ele>
        <time>2012-05-13T07:36:38Z</time>
      </trkpt>
      <trkpt lat="48.37657" lon="6.86255">
        <ele>500.98413085938</ele>
        <time>2012-05-13T07:36:43Z</time>
      </trkpt>
      <trkpt lat="48.37654" lon="6.86267">
        <ele>502.90673828125</ele>
        <time>2012-05-13T07:36:49Z</time>
      </trkpt>
      <trkpt lat="48.37651" lon="6.86282">
        <ele>503.8681640625</ele>
        <time>2012-05-13T07:36:53Z</time>
      </trkpt>
      <trkpt lat="48.37638" lon="6.86313">
        <ele>501.46484375</ele>
        <time>2012-05-13T07:37:07Z</time>
      </trkpt>
      <trkpt lat="48.37639" lon="6.86312">
        <ele>500.50354003906</ele>
        <time>2012-05-13T07:37:11Z</time>
      </trkpt>
      <trkpt lat="48.37639" lon="6.86311">
        <ele>497.13891601562</ele>
        <time>2012-05-13T07:37:23Z</time>
      </trkpt>
      <trkpt lat="48.37638" lon="6.86298">
        <ele>496.65832519531</ele>
        <time>2012-05-13T07:37:37Z</time>
      </trkpt>
      <trkpt lat="48.37638" lon="6.86297">
        <ele>495.69689941406</ele>
        <time>2012-05-13T07:38:12Z</time>
      </trkpt>
      <trkpt lat="48.37639" lon="6.86298">
        <ele>494.73559570312</ele>
        <time>2012-05-13T07:38:39Z</time>
      </trkpt>
      <trkpt lat="48.37641" lon="6.86298">
        <ele>494.25500488281</ele>
        <time>2012-05-13T07:39:08Z</time>
      </trkpt>
      <trkpt lat="48.37641" lon="6.86296">
        <ele>493.29357910156</ele>
        <time>2012-05-13T07:39:43Z</time>
      </trkpt>
      <trkpt lat="48.3764" lon="6.86296">
        <ele>493.29357910156</ele>
        <time>2012-05-13T07:40:31Z</time>
      </trkpt>
      <trkpt lat="48.37639" lon="6.86297">
        <ele>493.29357910156</ele>
        <time>2012-05-13T07:41:49Z</time>
      </trkpt>
      <trkpt lat="48.37639" lon="6.86297">
        <ele>493.29357910156</ele>
        <time>2012-05-13T07:42:55Z</time>
      </trkpt>
      <trkpt lat="48.37641" lon="6.86301">
        <ele>494.25500488281</ele>
        <time>2012-05-13T07:43:51Z</time>
      </trkpt>
      <trkpt lat="48.37643" lon="6.86301">
        <ele>494.73559570312</ele>
        <time>2012-05-13T07:44:13Z</time>
      </trkpt>
      <trkpt lat="48.37643" lon="6.86302">
        <ele>495.21618652344</ele>
        <time>2012-05-13T07:46:35Z</time>
      </trkpt>
      <trkpt lat="48.37645" lon="6.863">
        <ele>495.21618652344</ele>
        <time>2012-05-13T07:46:38Z</time>
      </trkpt>
      <trkpt lat="48.3765" lon="6.86287">
        <ele>495.21618652344</ele>
        <time>2012-05-13T07:46:45Z</time>
      </trkpt>
      <trkpt lat="48.37653" lon="6.86276">
        <ele>494.25500488281</ele>
        <time>2012-05-13T07:46:49Z</time>
      </trkpt>
      <trkpt lat="48.37652" lon="6.8627">
        <ele>494.73559570312</ele>
        <time>2012-05-13T07:46:52Z</time>
      </trkpt>
      <trkpt lat="48.37648" lon="6.8628">
        <ele>493.29357910156</ele>
        <time>2012-05-13T07:46:57Z</time>
      </trkpt>
      <trkpt lat="48.37643" lon="6.86282">
        <ele>491.37097167969</ele>
        <time>2012-05-13T07:47:01Z</time>
      </trkpt>
      <trkpt lat="48.3764" lon="6.86272">
        <ele>489.44836425781</ele>
        <time>2012-05-13T07:47:08Z</time>
      </trkpt>
      <trkpt lat="48.37648" lon="6.86254">
        <ele>492.33239746094</ele>
        <time>2012-05-13T07:47:18Z</time>
      </trkpt>
      <trkpt lat="48.37651" lon="6.86226">
        <ele>494.25500488281</ele>
        <time>2012-05-13T07:47:30Z</time>
      </trkpt>
      <trkpt lat="48.37654" lon="6.86215">
        <ele>496.177734375</ele>
        <time>2012-05-13T07:47:34Z</time>
      </trkpt>
      <trkpt lat="48.37656" lon="6.86208">
        <ele>496.177734375</ele>
        <time>2012-05-13T07:47:37Z</time>
      </trkpt>
      <trkpt lat="48.37657" lon="6.86198">
        <ele>495.69689941406</ele>
        <time>2012-05-13T07:47:41Z</time>
      </trkpt>
      <trkpt lat="48.37657" lon="6.86143">
        <ele>493.29357910156</ele>
        <time>2012-05-13T07:47:51Z</time>
      </trkpt>
      <trkpt lat="48.37656" lon="6.86103">
        <ele>489.44836425781</ele>
        <time>2012-05-13T07:47:59Z</time>
      </trkpt>
      <trkpt lat="48.37646" lon="6.86069">
        <ele>483.68041992188</ele>
        <time>2012-05-13T07:48:06Z</time>
      </trkpt>
      <trkpt lat="48.37641" lon="6.86057">
        <ele>483.68041992188</ele>
        <time>2012-05-13T07:48:12Z</time>
      </trkpt>
      <trkpt lat="48.37641" lon="6.86045">
        <ele>482.71923828125</ele>
        <time>2012-05-13T07:48:17Z</time>
      </trkpt>
      <trkpt lat="48.3764" lon="6.86023">
        <ele>483.19982910156</ele>
        <time>2012-05-13T07:48:27Z</time>
      </trkpt>
      <trkpt lat="48.37639" lon="6.86017">
        <ele>481.27722167969</ele>
        <time>2012-05-13T07:48:55Z</time>
      </trkpt>
      <trkpt lat="48.37636" lon="6.86007">
        <ele>481.7578125</ele>
        <time>2012-05-13T07:48:58Z</time>
      </trkpt>
      <trkpt lat="48.37631" lon="6.85997">
        <ele>480.31591796875</ele>
        <time>2012-05-13T07:49:03Z</time>
      </trkpt>
      <trkpt lat="48.37628" lon="6.85979">
        <ele>481.27722167969</ele>
        <time>2012-05-13T07:49:18Z</time>
      </trkpt>
      <trkpt lat="48.37626" lon="6.85971">
        <ele>482.23852539062</ele>
        <time>2012-05-13T07:49:20Z</time>
      </trkpt>
      <trkpt lat="48.37614" lon="6.85936">
        <ele>487.52563476562</ele>
        <time>2012-05-13T07:49:32Z</time>
      </trkpt>
      <trkpt lat="48.37619" lon="6.85926">
        <ele>490.89038085938</ele>
        <time>2012-05-13T07:49:40Z</time>
      </trkpt>
      <trkpt lat="48.37625" lon="6.8593">
        <ele>488.48718261719</ele>
        <time>2012-05-13T07:49:44Z</time>
      </trkpt>
      <trkpt lat="48.37627" lon="6.85928">
        <ele>488.00646972656</ele>
        <time>2012-05-13T07:49:51Z</time>
      </trkpt>
      <trkpt lat="48.37635" lon="6.85917">
        <ele>488.00646972656</ele>
        <time>2012-05-13T07:50:05Z</time>
      </trkpt>
      <trkpt lat="48.37642" lon="6.85901">
        <ele>487.52563476562</ele>
        <time>2012-05-13T07:50:16Z</time>
      </trkpt>
      <trkpt lat="48.37644" lon="6.8589">
        <ele>487.04504394531</ele>
        <time>2012-05-13T07:50:22Z</time>
      </trkpt>
      <trkpt lat="48.37667" lon="6.85876">
        <ele>483.19982910156</ele>
        <time>2012-05-13T07:50:33Z</time>
      </trkpt>
      <trkpt lat="48.37668" lon="6.85869">
        <ele>482.23852539062</ele>
        <time>2012-05-13T07:50:35Z</time>
      </trkpt>
      <trkpt lat="48.37679" lon="6.85854">
        <ele>481.27722167969</ele>
        <time>2012-05-13T07:50:39Z</time>
      </trkpt>
      <trkpt lat="48.37678" lon="6.85802">
        <ele>478.87390136719</ele>
        <time>2012-05-13T07:50:45Z</time>
      </trkpt>
      <trkpt lat="48.37676" lon="6.85788">
        <ele>478.39318847656</ele>
        <time>2012-05-13T07:50:47Z</time>
      </trkpt>
      <trkpt lat="48.37674" lon="6.85766">
        <ele>477.43188476562</ele>
        <time>2012-05-13T07:50:50Z</time>
      </trkpt>
      <trkpt lat="48.3768" lon="6.85709">
        <ele>474.54797363281</ele>
        <time>2012-05-13T07:50:59Z</time>
      </trkpt>
      <trkpt lat="48.37707" lon="6.85668">
        <ele>470.70263671875</ele>
        <time>2012-05-13T07:51:08Z</time>
      </trkpt>
      <trkpt lat="48.3771" lon="6.85664">
        <ele>469.74133300781</ele>
        <time>2012-05-13T07:51:10Z</time>
      </trkpt>
      <trkpt lat="48.37713" lon="6.8566">
        <ele>467.33813476562</ele>
        <time>2012-05-13T07:51:12Z</time>
      </trkpt>
      <trkpt lat="48.37751" lon="6.85616">
        <ele>455.32153320312</ele>
        <time>2012-05-13T07:51:24Z</time>
      </trkpt>
      <trkpt lat="48.37771" lon="6.85592">
        <ele>449.5537109375</ele>
        <time>2012-05-13T07:51:32Z</time>
      </trkpt>
      <trkpt lat="48.37775" lon="6.85587">
        <ele>449.5537109375</ele>
        <time>2012-05-13T07:51:34Z</time>
      </trkpt>
      <trkpt lat="48.37788" lon="6.85572">
        <ele>447.15026855469</ele>
        <time>2012-05-13T07:51:39Z</time>
      </trkpt>
      <trkpt lat="48.37798" lon="6.8556">
        <ele>443.78576660156</ele>
        <time>2012-05-13T07:51:43Z</time>
      </trkpt>
      <trkpt lat="48.37814" lon="6.85525">
        <ele>438.49853515625</ele>
        <time>2012-05-13T07:51:50Z</time>
      </trkpt>
      <trkpt lat="48.37823" lon="6.85503">
        <ele>436.09521484375</ele>
        <time>2012-05-13T07:51:54Z</time>
      </trkpt>
      <trkpt lat="48.37826" lon="6.85495">
        <ele>435.13391113281</ele>
        <time>2012-05-13T07:51:56Z</time>
      </trkpt>
      <trkpt lat="48.37837" lon="6.85453">
        <ele>433.21130371094</ele>
        <time>2012-05-13T07:52:03Z</time>
      </trkpt>
      <trkpt lat="48.37842" lon="6.85432">
        <ele>431.76916503906</ele>
        <time>2012-05-13T07:52:07Z</time>
      </trkpt>
      <trkpt lat="48.37868" lon="6.85427">
        <ele>430.80798339844</ele>
        <time>2012-05-13T07:52:10Z</time>
      </trkpt>
      <trkpt lat="48.37882" lon="6.85406">
        <ele>428.88537597656</ele>
        <time>2012-05-13T07:52:14Z</time>
      </trkpt>
      <trkpt lat="48.37897" lon="6.8539">
        <ele>426.00134277344</ele>
        <time>2012-05-13T07:52:19Z</time>
      </trkpt>
      <trkpt lat="48.37914" lon="6.85376">
        <ele>426.00134277344</ele>
        <time>2012-05-13T07:52:23Z</time>
      </trkpt>
      <trkpt lat="48.37935" lon="6.85365">
        <ele>427.92395019531</ele>
        <time>2012-05-13T07:52:26Z</time>
      </trkpt>
      <trkpt lat="48.37965" lon="6.85359">
        <ele>428.40466308594</ele>
        <time>2012-05-13T07:52:32Z</time>
      </trkpt>
      <trkpt lat="48.38013" lon="6.85386">
        <ele>431.28857421875</ele>
        <time>2012-05-13T07:52:40Z</time>
      </trkpt>
      <trkpt lat="48.38046" lon="6.85391">
        <ele>427.92395019531</ele>
        <time>2012-05-13T07:52:45Z</time>
      </trkpt>
      <trkpt lat="48.38085" lon="6.85396">
        <ele>427.443359375</ele>
        <time>2012-05-13T07:52:55Z</time>
      </trkpt>
      <trkpt lat="48.3811" lon="6.854">
        <ele>427.443359375</ele>
        <time>2012-05-13T07:52:59Z</time>
      </trkpt>
      <trkpt lat="48.38182" lon="6.85403">
        <ele>419.27221679688</ele>
        <time>2012-05-13T07:53:08Z</time>
      </trkpt>
      <trkpt lat="48.38195" lon="6.85403">
        <ele>417.83020019531</ele>
        <time>2012-05-13T07:53:10Z</time>
      </trkpt>
      <trkpt lat="48.38202" lon="6.85404">
        <ele>413.02355957031</ele>
        <time>2012-05-13T07:53:19Z</time>
      </trkpt>
      <trkpt lat="48.38208" lon="6.85404">
        <ele>412.54284667969</ele>
        <time>2012-05-13T07:53:23Z</time>
      </trkpt>
      <trkpt lat="48.38208" lon="6.85404">
        <ele>409.17834472656</ele>
        <time>2012-05-13T07:53:36Z</time>
      </trkpt>
      <trkpt lat="48.38208" lon="6.85404">
        <ele>408.69763183594</ele>
        <time>2012-05-13T07:53:44Z</time>
      </trkpt>
      <trkpt lat="48.38221" lon="6.85405">
        <ele>406.29431152344</ele>
        <time>2012-05-13T07:53:47Z</time>
      </trkpt>
      <trkpt lat="48.38232" lon="6.85406">
        <ele>404.85229492188</ele>
        <time>2012-05-13T07:53:50Z</time>
      </trkpt>
      <trkpt lat="48.38263" lon="6.85408">
        <ele>402.9296875</ele>
        <time>2012-05-13T07:53:55Z</time>
      </trkpt>
      <trkpt lat="48.38294" lon="6.85404">
        <ele>396.68115234375</ele>
        <time>2012-05-13T07:54:00Z</time>
      </trkpt>
      <trkpt lat="48.38327" lon="6.85383">
        <ele>388.51000976562</ele>
        <time>2012-05-13T07:54:06Z</time>
      </trkpt>
      <trkpt lat="48.38345" lon="6.85358">
        <ele>383.70324707031</ele>
        <time>2012-05-13T07:54:11Z</time>
      </trkpt>
      <trkpt lat="48.38353" lon="6.85341">
        <ele>379.85803222656</ele>
        <time>2012-05-13T07:54:15Z</time>
      </trkpt>
      <trkpt lat="48.38373" lon="6.853">
        <ele>371.68688964844</ele>
        <time>2012-05-13T07:54:23Z</time>
      </trkpt>
      <trkpt lat="48.38377" lon="6.85287">
        <ele>369.76428222656</ele>
        <time>2012-05-13T07:54:25Z</time>
      </trkpt>
      <trkpt lat="48.38382" lon="6.8527">
        <ele>366.39953613281</ele>
        <time>2012-05-13T07:54:28Z</time>
      </trkpt>
      <trkpt lat="48.38387" lon="6.85255">
        <ele>363.03503417969</ele>
        <time>2012-05-13T07:54:36Z</time>
      </trkpt>
      <trkpt lat="48.38397" lon="6.85224">
        <ele>361.11242675781</ele>
        <time>2012-05-13T07:55:01Z</time>
      </trkpt>
      <trkpt lat="48.38431" lon="6.8521">
        <ele>359.18969726562</ele>
        <time>2012-05-13T07:55:08Z</time>
      </trkpt>
      <trkpt lat="48.38437" lon="6.85211">
        <ele>359.67041015625</ele>
        <time>2012-05-13T07:55:20Z</time>
      </trkpt>
      <trkpt lat="48.3845" lon="6.8524">
        <ele>357.26708984375</ele>
        <time>2012-05-13T07:55:29Z</time>
      </trkpt>
      <trkpt lat="48.38451" lon="6.85262">
        <ele>356.30578613281</ele>
        <time>2012-05-13T07:55:31Z</time>
      </trkpt>
      <trkpt lat="48.38456" lon="6.85304">
        <ele>354.38317871094</ele>
        <time>2012-05-13T07:55:37Z</time>
      </trkpt>
      <trkpt lat="48.38457" lon="6.85314">
        <ele>354.38317871094</ele>
        <time>2012-05-13T07:55:48Z</time>
      </trkpt>
      <trkpt lat="48.38461" lon="6.85331">
        <ele>352.94116210938</ele>
        <time>2012-05-13T07:56:00Z</time>
      </trkpt>
      <trkpt lat="48.38468" lon="6.85363">
        <ele>351.01843261719</ele>
        <time>2012-05-13T07:56:10Z</time>
      </trkpt>
      <trkpt lat="48.38469" lon="6.85365">
        <ele>351.01843261719</ele>
        <time>2012-05-13T07:56:16Z</time>
      </trkpt>
      <trkpt lat="48.38478" lon="6.85375">
        <ele>352.46057128906</ele>
        <time>2012-05-13T07:56:20Z</time>
      </trkpt>
      <trkpt lat="48.38487" lon="6.85385">
        <ele>347.65393066406</ele>
        <time>2012-05-13T07:56:24Z</time>
      </trkpt>
      <trkpt lat="48.38496" lon="6.85395">
        <ele>348.615234375</ele>
        <time>2012-05-13T07:56:32Z</time>
      </trkpt>
      <trkpt lat="48.38507" lon="6.85406">
        <ele>350.05725097656</ele>
        <time>2012-05-13T07:56:36Z</time>
      </trkpt>
      <trkpt lat="48.38524" lon="6.85419">
        <ele>351.97985839844</ele>
        <time>2012-05-13T07:56:46Z</time>
      </trkpt>
      <trkpt lat="48.38554" lon="6.85442">
        <ele>356.30578613281</ele>
        <time>2012-05-13T07:57:01Z</time>
      </trkpt>
      <trkpt lat="48.38567" lon="6.85449">
        <ele>359.67041015625</ele>
        <time>2012-05-13T07:57:08Z</time>
      </trkpt>
      <trkpt lat="48.38586" lon="6.85458">
        <ele>360.15112304688</ele>
        <time>2012-05-13T07:57:15Z</time>
      </trkpt>
      <trkpt lat="48.38597" lon="6.85463">
        <ele>361.11242675781</ele>
        <time>2012-05-13T07:57:20Z</time>
      </trkpt>
      <trkpt lat="48.38601" lon="6.85465">
        <ele>360.15112304688</ele>
        <time>2012-05-13T07:57:22Z</time>
      </trkpt>
      <trkpt lat="48.38606" lon="6.85467">
        <ele>360.15112304688</ele>
        <time>2012-05-13T07:57:25Z</time>
      </trkpt>
      <trkpt lat="48.38608" lon="6.85468">
        <ele>361.11242675781</ele>
        <time>2012-05-13T07:57:30Z</time>
      </trkpt>
      <trkpt lat="48.38619" lon="6.85468">
        <ele>361.59313964844</ele>
        <time>2012-05-13T07:57:36Z</time>
      </trkpt>
      <trkpt lat="48.38626" lon="6.85468">
        <ele>362.55432128906</ele>
        <time>2012-05-13T07:57:38Z</time>
      </trkpt>
      <trkpt lat="48.38642" lon="6.85469">
        <ele>363.99633789062</ele>
        <time>2012-05-13T07:57:45Z</time>
      </trkpt>
      <trkpt lat="48.38644" lon="6.85469">
        <ele>364.47692871094</ele>
        <time>2012-05-13T07:57:47Z</time>
      </trkpt>
      <trkpt lat="48.38659" lon="6.8547">
        <ele>362.55432128906</ele>
        <time>2012-05-13T07:57:52Z</time>
      </trkpt>
      <trkpt lat="48.3869" lon="6.85472">
        <ele>367.36096191406</ele>
        <time>2012-05-13T07:58:05Z</time>
      </trkpt>
      <trkpt lat="48.38699" lon="6.85471">
        <ele>366.88024902344</ele>
        <time>2012-05-13T07:58:08Z</time>
      </trkpt>
      <trkpt lat="48.3873" lon="6.85469">
        <ele>366.39953613281</ele>
        <time>2012-05-13T07:58:19Z</time>
      </trkpt>
      <trkpt lat="48.3874" lon="6.85469">
        <ele>364.95764160156</ele>
        <time>2012-05-13T07:58:23Z</time>
      </trkpt>
      <trkpt lat="48.38761" lon="6.85464">
        <ele>359.18969726562</ele>
        <time>2012-05-13T07:58:34Z</time>
      </trkpt>
      <trkpt lat="48.38761" lon="6.85464">
        <ele>358.22839355469</ele>
        <time>2012-05-13T07:59:10Z</time>
      </trkpt>
      <trkpt lat="48.38761" lon="6.85464">
        <ele>357.26708984375</ele>
        <time>2012-05-13T08:06:37Z</time>
      </trkpt>
      <trkpt lat="48.38759" lon="6.85467">
        <ele>357.26708984375</ele>
        <time>2012-05-13T08:06:41Z</time>
      </trkpt>
      <trkpt lat="48.38759" lon="6.85467">
        <ele>356.78637695312</ele>
        <time>2012-05-13T08:06:46Z</time>
      </trkpt>
      <trkpt lat="48.38759" lon="6.85467">
        <ele>357.26708984375</ele>
        <time>2012-05-13T08:06:50Z</time>
      </trkpt>
      <trkpt lat="48.38759" lon="6.85467">
        <ele>356.78637695312</ele>
        <time>2012-05-13T08:06:55Z</time>
      </trkpt>
      <trkpt lat="48.38762" lon="6.85462">
        <ele>358.22839355469</ele>
        <time>2012-05-13T08:07:06Z</time>
      </trkpt>
      <trkpt lat="48.38762" lon="6.85462">
        <ele>358.708984375</ele>
        <time>2012-05-13T08:07:42Z</time>
      </trkpt>
      <trkpt lat="48.38762" lon="6.85462">
        <ele>358.708984375</ele>
        <time>2012-05-13T08:08:54Z</time>
      </trkpt>
      <trkpt lat="48.38762" lon="6.85462">
        <ele>360.15112304688</ele>
        <time>2012-05-13T08:09:19Z</time>
      </trkpt>
      <trkpt lat="48.38762" lon="6.85462">
        <ele>360.15112304688</ele>
        <time>2012-05-13T08:09:21Z</time>
      </trkpt>
      <trkpt lat="48.38762" lon="6.85462">
        <ele>359.18969726562</ele>
        <time>2012-05-13T08:09:24Z</time>
      </trkpt>
      <trkpt lat="48.38764" lon="6.85458">
        <ele>359.18969726562</ele>
        <time>2012-05-13T08:09:28Z</time>
      </trkpt>
      <trkpt lat="48.38776" lon="6.85436">
        <ele>360.63171386719</ele>
        <time>2012-05-13T08:09:42Z</time>
      </trkpt>
      <trkpt lat="48.38792" lon="6.85405">
        <ele>361.11242675781</ele>
        <time>2012-05-13T08:09:53Z</time>
      </trkpt>
      <trkpt lat="48.38772" lon="6.85349">
        <ele>360.63171386719</ele>
        <time>2012-05-13T08:10:06Z</time>
      </trkpt>
      <trkpt lat="48.38777" lon="6.85308">
        <ele>361.11242675781</ele>
        <time>2012-05-13T08:10:20Z</time>
      </trkpt>
      <trkpt lat="48.3878" lon="6.8528">
        <ele>364.47692871094</ele>
        <time>2012-05-13T08:10:33Z</time>
      </trkpt>
      <trkpt lat="48.38784" lon="6.85252">
        <ele>364.95764160156</ele>
        <time>2012-05-13T08:10:45Z</time>
      </trkpt>
      <trkpt lat="48.38786" lon="6.85228">
        <ele>368.80297851562</ele>
        <time>2012-05-13T08:10:54Z</time>
      </trkpt>
      <trkpt lat="48.38789" lon="6.85206">
        <ele>369.28369140625</ele>
        <time>2012-05-13T08:11:02Z</time>
      </trkpt>
      <trkpt lat="48.38791" lon="6.85193">
        <ele>371.20629882812</ele>
        <time>2012-05-13T08:11:08Z</time>
      </trkpt>
      <trkpt lat="48.38791" lon="6.85192">
        <ele>372.64819335938</ele>
        <time>2012-05-13T08:11:12Z</time>
      </trkpt>
      <trkpt lat="48.38794" lon="6.85165">
        <ele>374.09008789062</ele>
        <time>2012-05-13T08:11:20Z</time>
      </trkpt>
      <trkpt lat="48.38798" lon="6.8515">
        <ele>379.85803222656</ele>
        <time>2012-05-13T08:11:29Z</time>
      </trkpt>
      <trkpt lat="48.38804" lon="6.85134">
        <ele>381.78063964844</ele>
        <time>2012-05-13T08:11:40Z</time>
      </trkpt>
      <trkpt lat="48.38812" lon="6.85111">
        <ele>382.74206542969</ele>
        <time>2012-05-13T08:11:51Z</time>
      </trkpt>
      <trkpt lat="48.3882" lon="6.85089">
        <ele>385.6259765625</ele>
        <time>2012-05-13T08:12:03Z</time>
      </trkpt>
      <trkpt lat="48.38827" lon="6.8508">
        <ele>388.029296875</ele>
        <time>2012-05-13T08:12:10Z</time>
      </trkpt>
      <trkpt lat="48.38836" lon="6.85077">
        <ele>388.029296875</ele>
        <time>2012-05-13T08:12:13Z</time>
      </trkpt>
      <trkpt lat="48.38837" lon="6.85077">
        <ele>388.99060058594</ele>
        <time>2012-05-13T08:12:19Z</time>
      </trkpt>
      <trkpt lat="48.38861" lon="6.8507">
        <ele>393.79724121094</ele>
        <time>2012-05-13T08:12:32Z</time>
      </trkpt>
      <trkpt lat="48.38877" lon="6.85061">
        <ele>401.96850585938</ele>
        <time>2012-05-13T08:12:42Z</time>
      </trkpt>
      <trkpt lat="48.3888" lon="6.8506">
        <ele>403.89111328125</ele>
        <time>2012-05-13T08:12:46Z</time>
      </trkpt>
      <trkpt lat="48.3891" lon="6.85043">
        <ele>404.85229492188</ele>
        <time>2012-05-13T08:13:01Z</time>
      </trkpt>
      <trkpt lat="48.38924" lon="6.85035">
        <ele>395.71984863281</ele>
        <time>2012-05-13T08:13:09Z</time>
      </trkpt>
      <trkpt lat="48.38937" lon="6.85023">
        <ele>397.64245605469</ele>
        <time>2012-05-13T08:13:19Z</time>
      </trkpt>
      <trkpt lat="48.38946" lon="6.85012">
        <ele>400.0458984375</ele>
        <time>2012-05-13T08:13:28Z</time>
      </trkpt>
      <trkpt lat="48.38953" lon="6.85002">
        <ele>402.44909667969</ele>
        <time>2012-05-13T08:13:33Z</time>
      </trkpt>
      <trkpt lat="48.38955" lon="6.84999">
        <ele>403.41040039062</ele>
        <time>2012-05-13T08:13:36Z</time>
      </trkpt>
      <trkpt lat="48.38956" lon="6.84997">
        <ele>403.89111328125</ele>
        <time>2012-05-13T08:13:38Z</time>
      </trkpt>
      <trkpt lat="48.38961" lon="6.84991">
        <ele>405.81372070312</ele>
        <time>2012-05-13T08:13:43Z</time>
      </trkpt>
      <trkpt lat="48.38965" lon="6.84985">
        <ele>407.25561523438</ele>
        <time>2012-05-13T08:13:46Z</time>
      </trkpt>
      <trkpt lat="48.38967" lon="6.84982">
        <ele>408.21704101562</ele>
        <time>2012-05-13T08:13:48Z</time>
      </trkpt>
      <trkpt lat="48.3898" lon="6.84975">
        <ele>413.02355957031</ele>
        <time>2012-05-13T08:13:57Z</time>
      </trkpt>
      <trkpt lat="48.38995" lon="6.84974">
        <ele>414.94616699219</ele>
        <time>2012-05-13T08:14:01Z</time>
      </trkpt>
      <trkpt lat="48.39009" lon="6.84973">
        <ele>418.31079101562</ele>
        <time>2012-05-13T08:14:11Z</time>
      </trkpt>
      <trkpt lat="48.39009" lon="6.84973">
        <ele>418.31079101562</ele>
        <time>2012-05-13T08:14:13Z</time>
      </trkpt>
      <trkpt lat="48.39031" lon="6.84965">
        <ele>417.83020019531</ele>
        <time>2012-05-13T08:14:24Z</time>
      </trkpt>
      <trkpt lat="48.39061" lon="6.84947">
        <ele>413.98486328125</ele>
        <time>2012-05-13T08:14:38Z</time>
      </trkpt>
      <trkpt lat="48.39082" lon="6.84934">
        <ele>414.46545410156</ele>
        <time>2012-05-13T08:14:50Z</time>
      </trkpt>
      <trkpt lat="48.39083" lon="6.84933">
        <ele>416.38818359375</ele>
        <time>2012-05-13T08:14:56Z</time>
      </trkpt>
      <trkpt lat="48.39077" lon="6.84937">
        <ele>417.83020019531</ele>
        <time>2012-05-13T08:15:02Z</time>
      </trkpt>
      <trkpt lat="48.39058" lon="6.84949">
        <ele>420.71411132812</ele>
        <time>2012-05-13T08:15:14Z</time>
      </trkpt>
      <trkpt lat="48.39029" lon="6.84916">
        <ele>422.15600585938</ele>
        <time>2012-05-13T08:15:26Z</time>
      </trkpt>
      <trkpt lat="48.39024" lon="6.84915">
        <ele>424.07873535156</ele>
        <time>2012-05-13T08:15:29Z</time>
      </trkpt>
      <trkpt lat="48.39007" lon="6.84914">
        <ele>426.48205566406</ele>
        <time>2012-05-13T08:15:40Z</time>
      </trkpt>
      <trkpt lat="48.38997" lon="6.84913">
        <ele>428.40466308594</ele>
        <time>2012-05-13T08:15:45Z</time>
      </trkpt>
      <trkpt lat="48.38989" lon="6.84911">
        <ele>429.36596679688</ele>
        <time>2012-05-13T08:15:49Z</time>
      </trkpt>
      <trkpt lat="48.38964" lon="6.84904">
        <ele>432.73071289062</ele>
        <time>2012-05-13T08:16:01Z</time>
      </trkpt>
      <trkpt lat="48.38964" lon="6.84904">
        <ele>433.21130371094</ele>
        <time>2012-05-13T08:16:04Z</time>
      </trkpt>
      <trkpt lat="48.38943" lon="6.84899">
        <ele>436.57592773438</ele>
        <time>2012-05-13T08:16:15Z</time>
      </trkpt>
      <trkpt lat="48.38913" lon="6.84893">
        <ele>435.13391113281</ele>
        <time>2012-05-13T08:16:28Z</time>
      </trkpt>
      <trkpt lat="48.38892" lon="6.8489">
        <ele>432.73071289062</ele>
        <time>2012-05-13T08:16:37Z</time>
      </trkpt>
      <trkpt lat="48.38878" lon="6.84887">
        <ele>430.80798339844</ele>
        <time>2012-05-13T08:16:47Z</time>
      </trkpt>
      <trkpt lat="48.38874" lon="6.84887">
        <ele>430.32727050781</ele>
        <time>2012-05-13T08:16:50Z</time>
      </trkpt>
      <trkpt lat="48.38851" lon="6.84856">
        <ele>429.84655761719</ele>
        <time>2012-05-13T08:17:04Z</time>
      </trkpt>
      <trkpt lat="48.3885" lon="6.84854">
        <ele>429.84655761719</ele>
        <time>2012-05-13T08:17:05Z</time>
      </trkpt>
      <trkpt lat="48.38847" lon="6.84849">
        <ele>428.88537597656</ele>
        <time>2012-05-13T08:17:08Z</time>
      </trkpt>
      <trkpt lat="48.38839" lon="6.84836">
        <ele>430.32727050781</ele>
        <time>2012-05-13T08:17:15Z</time>
      </trkpt>
      <trkpt lat="48.38835" lon="6.8483">
        <ele>432.73071289062</ele>
        <time>2012-05-13T08:17:18Z</time>
      </trkpt>
      <trkpt lat="48.38816" lon="6.84797">
        <ele>437.05651855469</ele>
        <time>2012-05-13T08:17:34Z</time>
      </trkpt>
      <trkpt lat="48.38814" lon="6.84792">
        <ele>438.97912597656</ele>
        <time>2012-05-13T08:17:37Z</time>
      </trkpt>
      <trkpt lat="48.38804" lon="6.84771">
        <ele>442.82446289062</ele>
        <time>2012-05-13T08:17:46Z</time>
      </trkpt>
      <trkpt lat="48.38789" lon="6.84735">
        <ele>444.26647949219</ele>
        <time>2012-05-13T08:18:00Z</time>
      </trkpt>
      <trkpt lat="48.38786" lon="6.8472">
        <ele>446.66967773438</ele>
        <time>2012-05-13T08:18:06Z</time>
      </trkpt>
      <trkpt lat="48.38782" lon="6.84698">
        <ele>449.07299804688</ele>
        <time>2012-05-13T08:18:17Z</time>
      </trkpt>
      <trkpt lat="48.38779" lon="6.84682">
        <ele>450.51501464844</ele>
        <time>2012-05-13T08:18:22Z</time>
      </trkpt>
      <trkpt lat="48.38778" lon="6.8468">
        <ele>452.43762207031</ele>
        <time>2012-05-13T08:18:25Z</time>
      </trkpt>
      <trkpt lat="48.38775" lon="6.84662">
        <ele>453.39892578125</ele>
        <time>2012-05-13T08:18:31Z</time>
      </trkpt>
      <trkpt lat="48.38774" lon="6.84627">
        <ele>453.39892578125</ele>
        <time>2012-05-13T08:18:46Z</time>
      </trkpt>
      <trkpt lat="48.38767" lon="6.84622">
        <ele>454.36022949219</ele>
        <time>2012-05-13T08:18:56Z</time>
      </trkpt>
      <trkpt lat="48.38734" lon="6.84597">
        <ele>457.24426269531</ele>
        <time>2012-05-13T08:19:08Z</time>
      </trkpt>
      <trkpt lat="48.38715" lon="6.84586">
        <ele>459.16687011719</ele>
        <time>2012-05-13T08:19:20Z</time>
      </trkpt>
      <trkpt lat="48.38711" lon="6.84583">
        <ele>459.16687011719</ele>
        <time>2012-05-13T08:19:25Z</time>
      </trkpt>
      <trkpt lat="48.38704" lon="6.84578">
        <ele>460.12817382812</ele>
        <time>2012-05-13T08:19:29Z</time>
      </trkpt>
      <trkpt lat="48.38694" lon="6.84528">
        <ele>461.57019042969</ele>
        <time>2012-05-13T08:19:43Z</time>
      </trkpt>
      <trkpt lat="48.38677" lon="6.84494">
        <ele>462.53137207031</ele>
        <time>2012-05-13T08:19:57Z</time>
      </trkpt>
      <trkpt lat="48.38675" lon="6.84488">
        <ele>463.49279785156</ele>
        <time>2012-05-13T08:19:59Z</time>
      </trkpt>
      <trkpt lat="48.38665" lon="6.84469">
        <ele>467.33813476562</ele>
        <time>2012-05-13T08:20:09Z</time>
      </trkpt>
      <trkpt lat="48.38654" lon="6.84443">
        <ele>470.70263671875</ele>
        <time>2012-05-13T08:20:21Z</time>
      </trkpt>
      <trkpt lat="48.38636" lon="6.84403">
        <ele>473.10607910156</ele>
        <time>2012-05-13T08:20:38Z</time>
      </trkpt>
      <trkpt lat="48.38628" lon="6.84384">
        <ele>475.50927734375</ele>
        <time>2012-05-13T08:20:46Z</time>
      </trkpt>
      <trkpt lat="48.38623" lon="6.84378">
        <ele>475.50927734375</ele>
        <time>2012-05-13T08:20:50Z</time>
      </trkpt>
      <trkpt lat="48.38603" lon="6.84357">
        <ele>475.50927734375</ele>
        <time>2012-05-13T08:21:05Z</time>
      </trkpt>
      <trkpt lat="48.38601" lon="6.84355">
        <ele>475.98986816406</ele>
        <time>2012-05-13T08:21:08Z</time>
      </trkpt>
      <trkpt lat="48.3859" lon="6.84343">
        <ele>480.79663085938</ele>
        <time>2012-05-13T08:21:16Z</time>
      </trkpt>
      <trkpt lat="48.38583" lon="6.84335">
        <ele>482.23852539062</ele>
        <time>2012-05-13T08:21:21Z</time>
      </trkpt>
      <trkpt lat="48.38564" lon="6.84315">
        <ele>483.68041992188</ele>
        <time>2012-05-13T08:21:32Z</time>
      </trkpt>
      <trkpt lat="48.38545" lon="6.84275">
        <ele>491.37097167969</ele>
        <time>2012-05-13T08:21:48Z</time>
      </trkpt>
      <trkpt lat="48.3854" lon="6.84239">
        <ele>492.81298828125</ele>
        <time>2012-05-13T08:22:00Z</time>
      </trkpt>
      <trkpt lat="48.38538" lon="6.84227">
        <ele>492.81298828125</ele>
        <time>2012-05-13T08:22:04Z</time>
      </trkpt>
      <trkpt lat="48.38533" lon="6.84195">
        <ele>494.73559570312</ele>
        <time>2012-05-13T08:22:14Z</time>
      </trkpt>
      <trkpt lat="48.38528" lon="6.84161">
        <ele>497.13891601562</ele>
        <time>2012-05-13T08:22:26Z</time>
      </trkpt>
      <trkpt lat="48.38524" lon="6.84134">
        <ele>507.23278808594</ele>
        <time>2012-05-13T08:22:38Z</time>
      </trkpt>
      <trkpt lat="48.38521" lon="6.84113">
        <ele>511.07800292969</ele>
        <time>2012-05-13T08:22:46Z</time>
      </trkpt>
      <trkpt lat="48.38515" lon="6.84067">
        <ele>514.44262695312</ele>
        <time>2012-05-13T08:23:01Z</time>
      </trkpt>
      <trkpt lat="48.38511" lon="6.84034">
        <ele>516.84594726562</ele>
        <time>2012-05-13T08:23:13Z</time>
      </trkpt>
      <trkpt lat="48.38509" lon="6.84022">
        <ele>519.72985839844</ele>
        <time>2012-05-13T08:23:18Z</time>
      </trkpt>
      <trkpt lat="48.38509" lon="6.84017">
        <ele>520.69128417969</ele>
        <time>2012-05-13T08:23:20Z</time>
      </trkpt>
      <trkpt lat="48.38507" lon="6.84004">
        <ele>521.65258789062</ele>
        <time>2012-05-13T08:23:26Z</time>
      </trkpt>
      <trkpt lat="48.38501" lon="6.83985">
        <ele>522.61389160156</ele>
        <time>2012-05-13T08:23:32Z</time>
      </trkpt>
      <trkpt lat="48.38493" lon="6.83967">
        <ele>524.05578613281</ele>
        <time>2012-05-13T08:23:39Z</time>
      </trkpt>
      <trkpt lat="48.38489" lon="6.83958">
        <ele>521.65258789062</ele>
        <time>2012-05-13T08:23:43Z</time>
      </trkpt>
      <trkpt lat="48.38473" lon="6.83922">
        <ele>522.13317871094</ele>
        <time>2012-05-13T08:23:57Z</time>
      </trkpt>
      <trkpt lat="48.38472" lon="6.8392">
        <ele>522.61389160156</ele>
        <time>2012-05-13T08:23:58Z</time>
      </trkpt>
      <trkpt lat="48.38456" lon="6.83886">
        <ele>519.72985839844</ele>
        <time>2012-05-13T08:24:13Z</time>
      </trkpt>
      <trkpt lat="48.38449" lon="6.83871">
        <ele>523.09460449219</ele>
        <time>2012-05-13T08:24:20Z</time>
      </trkpt>
      <trkpt lat="48.38434" lon="6.83854">
        <ele>528.3818359375</ele>
        <time>2012-05-13T08:24:28Z</time>
      </trkpt>
      <trkpt lat="48.38432" lon="6.83853">
        <ele>528.3818359375</ele>
        <time>2012-05-13T08:24:30Z</time>
      </trkpt>
      <trkpt lat="48.38407" lon="6.83835">
        <ele>529.82373046875</ele>
        <time>2012-05-13T08:24:43Z</time>
      </trkpt>
      <trkpt lat="48.38398" lon="6.83828">
        <ele>531.26574707031</ele>
        <time>2012-05-13T08:24:48Z</time>
      </trkpt>
      <trkpt lat="48.38395" lon="6.83826">
        <ele>530.30444335938</ele>
        <time>2012-05-13T08:24:51Z</time>
      </trkpt>
      <trkpt lat="48.38374" lon="6.8381">
        <ele>531.74633789062</ele>
        <time>2012-05-13T08:25:02Z</time>
      </trkpt>
      <trkpt lat="48.3837" lon="6.83807">
        <ele>532.22705078125</ele>
        <time>2012-05-13T08:25:04Z</time>
      </trkpt>
      <trkpt lat="48.38352" lon="6.83798">
        <ele>533.6689453125</ele>
        <time>2012-05-13T08:25:10Z</time>
      </trkpt>
      <trkpt lat="48.38334" lon="6.83792">
        <ele>534.14965820312</ele>
        <time>2012-05-13T08:25:20Z</time>
      </trkpt>
      <trkpt lat="48.3833" lon="6.8379">
        <ele>537.03369140625</ele>
        <time>2012-05-13T08:25:24Z</time>
      </trkpt>
      <trkpt lat="48.38321" lon="6.83787">
        <ele>540.87890625</ele>
        <time>2012-05-13T08:25:33Z</time>
      </trkpt>
      <trkpt lat="48.38291" lon="6.83777">
        <ele>542.80151367188</ele>
        <time>2012-05-13T08:25:45Z</time>
      </trkpt>
      <trkpt lat="48.3829" lon="6.83777">
        <ele>543.76281738281</ele>
        <time>2012-05-13T08:25:48Z</time>
      </trkpt>
      <trkpt lat="48.38274" lon="6.83772">
        <ele>547.12744140625</ele>
        <time>2012-05-13T08:25:55Z</time>
      </trkpt>
      <trkpt lat="48.38273" lon="6.83771">
        <ele>547.12744140625</ele>
        <time>2012-05-13T08:26:07Z</time>
      </trkpt>
      <trkpt lat="48.38273" lon="6.83771">
        <ele>548.0888671875</ele>
        <time>2012-05-13T08:26:24Z</time>
      </trkpt>
      <trkpt lat="48.38273" lon="6.83771">
        <ele>548.5693359375</ele>
        <time>2012-05-13T08:26:28Z</time>
      </trkpt>
      <trkpt lat="48.3825" lon="6.83764">
        <ele>549.53076171875</ele>
        <time>2012-05-13T08:26:39Z</time>
      </trkpt>
      <trkpt lat="48.3825" lon="6.83764">
        <ele>547.60815429688</ele>
        <time>2012-05-13T08:26:55Z</time>
      </trkpt>
      <trkpt lat="48.3825" lon="6.83764">
        <ele>547.12744140625</ele>
        <time>2012-05-13T08:27:35Z</time>
      </trkpt>
      <trkpt lat="48.38224" lon="6.838">
        <ele>550.4921875</ele>
        <time>2012-05-13T08:27:48Z</time>
      </trkpt>
      <trkpt lat="48.38223" lon="6.83801">
        <ele>550.4921875</ele>
        <time>2012-05-13T08:27:49Z</time>
      </trkpt>
      <trkpt lat="48.38202" lon="6.83821">
        <ele>554.81787109375</ele>
        <time>2012-05-13T08:28:01Z</time>
      </trkpt>
      <trkpt lat="48.38163" lon="6.83741">
        <ele>555.29858398438</ele>
        <time>2012-05-13T08:28:14Z</time>
      </trkpt>
      <trkpt lat="48.38151" lon="6.83737">
        <ele>554.81787109375</ele>
        <time>2012-05-13T08:28:18Z</time>
      </trkpt>
      <trkpt lat="48.38138" lon="6.83734">
        <ele>555.29858398438</ele>
        <time>2012-05-13T08:28:24Z</time>
      </trkpt>
      <trkpt lat="48.38114" lon="6.83755">
        <ele>557.7021484375</ele>
        <time>2012-05-13T08:28:35Z</time>
      </trkpt>
      <trkpt lat="48.38108" lon="6.8375">
        <ele>557.7021484375</ele>
        <time>2012-05-13T08:28:38Z</time>
      </trkpt>
      <trkpt lat="48.38087" lon="6.83732">
        <ele>561.06665039062</ele>
        <time>2012-05-13T08:28:51Z</time>
      </trkpt>
      <trkpt lat="48.38084" lon="6.8373">
        <ele>561.54736328125</ele>
        <time>2012-05-13T08:28:53Z</time>
      </trkpt>
      <trkpt lat="48.3808" lon="6.83727">
        <ele>561.54736328125</ele>
        <time>2012-05-13T08:28:56Z</time>
      </trkpt>
      <trkpt lat="48.38077" lon="6.83724">
        <ele>562.02807617188</ele>
        <time>2012-05-13T08:28:58Z</time>
      </trkpt>
      <trkpt lat="48.38063" lon="6.83711">
        <ele>563.46997070312</ele>
        <time>2012-05-13T08:29:08Z</time>
      </trkpt>
      <trkpt lat="48.3805" lon="6.83694">
        <ele>564.91186523438</ele>
        <time>2012-05-13T08:29:18Z</time>
      </trkpt>
      <trkpt lat="48.38046" lon="6.83689">
        <ele>564.43115234375</ele>
        <time>2012-05-13T08:29:21Z</time>
      </trkpt>
      <trkpt lat="48.38034" lon="6.83682">
        <ele>565.87329101562</ele>
        <time>2012-05-13T08:29:31Z</time>
      </trkpt>
      <trkpt lat="48.38029" lon="6.83679">
        <ele>567.79565429688</ele>
        <time>2012-05-13T08:29:46Z</time>
      </trkpt>
      <trkpt lat="48.38029" lon="6.83675">
        <ele>569.23779296875</ele>
        <time>2012-05-13T08:30:04Z</time>
      </trkpt>
      <trkpt lat="48.3803" lon="6.83674">
        <ele>568.75708007812</ele>
        <time>2012-05-13T08:30:23Z</time>
      </trkpt>
      <trkpt lat="48.38028" lon="6.83674">
        <ele>569.71850585938</ele>
        <time>2012-05-13T08:38:59Z</time>
      </trkpt>
      <trkpt lat="48.38028" lon="6.83675">
        <ele>568.75708007812</ele>
        <time>2012-05-13T08:39:31Z</time>
      </trkpt>
      <trkpt lat="48.38028" lon="6.83676">
        <ele>568.75708007812</ele>
        <time>2012-05-13T08:41:16Z</time>
      </trkpt>
      <trkpt lat="48.38022" lon="6.83672">
        <ele>568.2763671875</ele>
        <time>2012-05-13T08:41:20Z</time>
      </trkpt>
      <trkpt lat="48.38014" lon="6.83666">
        <ele>569.71850585938</ele>
        <time>2012-05-13T08:41:32Z</time>
      </trkpt>
      <trkpt lat="48.38014" lon="6.83667">
        <ele>569.71850585938</ele>
        <time>2012-05-13T08:41:44Z</time>
      </trkpt>
      <trkpt lat="48.38006" lon="6.83661">
        <ele>570.6796875</ele>
        <time>2012-05-13T08:41:53Z</time>
      </trkpt>
      <trkpt lat="48.37997" lon="6.83659">
        <ele>571.64086914062</ele>
        <time>2012-05-13T08:42:03Z</time>
      </trkpt>
      <trkpt lat="48.37998" lon="6.83659">
        <ele>572.12182617188</ele>
        <time>2012-05-13T08:42:12Z</time>
      </trkpt>
      <trkpt lat="48.37984" lon="6.83655">
        <ele>572.12182617188</ele>
        <time>2012-05-13T08:42:19Z</time>
      </trkpt>
      <trkpt lat="48.3798" lon="6.83651">
        <ele>572.6025390625</ele>
        <time>2012-05-13T08:42:22Z</time>
      </trkpt>
      <trkpt lat="48.37977" lon="6.8365">
        <ele>572.6025390625</ele>
        <time>2012-05-13T08:42:38Z</time>
      </trkpt>
      <trkpt lat="48.37978" lon="6.83644">
        <ele>573.56396484375</ele>
        <time>2012-05-13T08:43:55Z</time>
      </trkpt>
      <trkpt lat="48.37976" lon="6.83632">
        <ele>575.96704101562</ele>
        <time>2012-05-13T08:44:04Z</time>
      </trkpt>
      <trkpt lat="48.37981" lon="6.83625">
        <ele>576.44775390625</ele>
        <time>2012-05-13T08:44:16Z</time>
      </trkpt>
      <trkpt lat="48.37981" lon="6.83625">
        <ele>575.96704101562</ele>
        <time>2012-05-13T08:45:06Z</time>
      </trkpt>
      <trkpt lat="48.37997" lon="6.83641">
        <ele>575.96704101562</ele>
        <time>2012-05-13T08:45:16Z</time>
      </trkpt>
      <trkpt lat="48.38007" lon="6.83642">
        <ele>578.37036132812</ele>
        <time>2012-05-13T08:45:21Z</time>
      </trkpt>
      <trkpt lat="48.38012" lon="6.83647">
        <ele>577.8896484375</ele>
        <time>2012-05-13T08:45:23Z</time>
      </trkpt>
      <trkpt lat="48.38024" lon="6.83641">
        <ele>569.71850585938</ele>
        <time>2012-05-13T08:45:27Z</time>
      </trkpt>
      <trkpt lat="48.38038" lon="6.83654">
        <ele>570.19897460938</ele>
        <time>2012-05-13T08:45:33Z</time>
      </trkpt>
      <trkpt lat="48.38067" lon="6.83676">
        <ele>570.19897460938</ele>
        <time>2012-05-13T08:45:43Z</time>
      </trkpt>
      <trkpt lat="48.38091" lon="6.83705">
        <ele>574.04443359375</ele>
        <time>2012-05-13T08:45:51Z</time>
      </trkpt>
      <trkpt lat="48.38107" lon="6.83706">
        <ele>575.486328125</ele>
        <time>2012-05-13T08:46:02Z</time>
      </trkpt>
      <trkpt lat="48.38107" lon="6.83706">
        <ele>576.44775390625</ele>
        <time>2012-05-13T08:46:05Z</time>
      </trkpt>
      <trkpt lat="48.38114" lon="6.83706">
        <ele>579.33154296875</ele>
        <time>2012-05-13T08:46:09Z</time>
      </trkpt>
      <trkpt lat="48.3813" lon="6.83706">
        <ele>582.21557617188</ele>
        <time>2012-05-13T08:46:16Z</time>
      </trkpt>
      <trkpt lat="48.38139" lon="6.83705">
        <ele>582.6962890625</ele>
        <time>2012-05-13T08:46:19Z</time>
      </trkpt>
      <trkpt lat="48.38161" lon="6.837">
        <ele>583.1767578125</ele>
        <time>2012-05-13T08:46:27Z</time>
      </trkpt>
      <trkpt lat="48.38183" lon="6.83671">
        <ele>585.099609375</ele>
        <time>2012-05-13T08:46:37Z</time>
      </trkpt>
      <trkpt lat="48.38191" lon="6.83667">
        <ele>584.13818359375</ele>
        <time>2012-05-13T08:46:39Z</time>
      </trkpt>
      <trkpt lat="48.38214" lon="6.83647">
        <ele>581.73486328125</ele>
        <time>2012-05-13T08:46:44Z</time>
      </trkpt>
      <trkpt lat="48.38236" lon="6.83618">
        <ele>580.29296875</ele>
        <time>2012-05-13T08:46:50Z</time>
      </trkpt>
      <trkpt lat="48.38251" lon="6.83599">
        <ele>580.77368164062</ele>
        <time>2012-05-13T08:46:54Z</time>
      </trkpt>
      <trkpt lat="48.38281" lon="6.83561">
        <ele>581.25439453125</ele>
        <time>2012-05-13T08:47:03Z</time>
      </trkpt>
      <trkpt lat="48.38306" lon="6.83523">
        <ele>583.65747070312</ele>
        <time>2012-05-13T08:47:15Z</time>
      </trkpt>
      <trkpt lat="48.38315" lon="6.83502">
        <ele>584.13818359375</ele>
        <time>2012-05-13T08:47:21Z</time>
      </trkpt>
      <trkpt lat="48.3832" lon="6.83491">
        <ele>583.1767578125</ele>
        <time>2012-05-13T08:47:25Z</time>
      </trkpt>
      <trkpt lat="48.3836" lon="6.83504">
        <ele>583.65747070312</ele>
        <time>2012-05-13T08:47:38Z</time>
      </trkpt>
      <trkpt lat="48.38426" lon="6.83553">
        <ele>586.06079101562</ele>
        <time>2012-05-13T08:47:58Z</time>
      </trkpt>
      <trkpt lat="48.38453" lon="6.83576">
        <ele>585.099609375</ele>
        <time>2012-05-13T08:48:06Z</time>
      </trkpt>
      <trkpt lat="48.38494" lon="6.83624">
        <ele>584.61889648438</ele>
        <time>2012-05-13T08:48:19Z</time>
      </trkpt>
      <trkpt lat="48.38502" lon="6.83633">
        <ele>585.099609375</ele>
        <time>2012-05-13T08:48:21Z</time>
      </trkpt>
      <trkpt lat="48.38512" lon="6.83647">
        <ele>585.580078125</ele>
        <time>2012-05-13T08:48:24Z</time>
      </trkpt>
      <trkpt lat="48.38547" lon="6.83678">
        <ele>586.06079101562</ele>
        <time>2012-05-13T08:48:36Z</time>
      </trkpt>
      <trkpt lat="48.38594" lon="6.83702">
        <ele>587.02197265625</ele>
        <time>2012-05-13T08:48:52Z</time>
      </trkpt>
      <trkpt lat="48.38625" lon="6.8372">
        <ele>586.06079101562</ele>
        <time>2012-05-13T08:49:02Z</time>
      </trkpt>
      <trkpt lat="48.38656" lon="6.83763">
        <ele>583.65747070312</ele>
        <time>2012-05-13T08:49:15Z</time>
      </trkpt>
      <trkpt lat="48.38664" lon="6.8379">
        <ele>584.13818359375</ele>
        <time>2012-05-13T08:49:19Z</time>
      </trkpt>
      <trkpt lat="48.38671" lon="6.83814">
        <ele>584.61889648438</ele>
        <time>2012-05-13T08:49:23Z</time>
      </trkpt>
      <trkpt lat="48.38681" lon="6.83829">
        <ele>585.099609375</ele>
        <time>2012-05-13T08:49:26Z</time>
      </trkpt>
      <trkpt lat="48.38696" lon="6.83853">
        <ele>586.06079101562</ele>
        <time>2012-05-13T08:49:31Z</time>
      </trkpt>
      <trkpt lat="48.38706" lon="6.83868">
        <ele>585.099609375</ele>
        <time>2012-05-13T08:49:34Z</time>
      </trkpt>
      <trkpt lat="48.38716" lon="6.83884">
        <ele>585.580078125</ele>
        <time>2012-05-13T08:49:37Z</time>
      </trkpt>
      <trkpt lat="48.38748" lon="6.83933">
        <ele>586.54150390625</ele>
        <time>2012-05-13T08:49:47Z</time>
      </trkpt>
      <trkpt lat="48.38759" lon="6.8395">
        <ele>587.02197265625</ele>
        <time>2012-05-13T08:49:51Z</time>
      </trkpt>
      <trkpt lat="48.38781" lon="6.83982">
        <ele>587.50268554688</ele>
        <time>2012-05-13T08:49:58Z</time>
      </trkpt>
      <trkpt lat="48.38814" lon="6.8403">
        <ele>588.94506835938</ele>
        <time>2012-05-13T08:50:08Z</time>
      </trkpt>
      <trkpt lat="48.3884" lon="6.84067">
        <ele>589.42553710938</ele>
        <time>2012-05-13T08:50:15Z</time>
      </trkpt>
      <trkpt lat="48.38856" lon="6.84083">
        <ele>588.94506835938</ele>
        <time>2012-05-13T08:50:19Z</time>
      </trkpt>
      <trkpt lat="48.38864" lon="6.84088">
        <ele>589.42553710938</ele>
        <time>2012-05-13T08:50:21Z</time>
      </trkpt>
      <trkpt lat="48.38882" lon="6.84099">
        <ele>588.46435546875</ele>
        <time>2012-05-13T08:50:25Z</time>
      </trkpt>
      <trkpt lat="48.38898" lon="6.84109">
        <ele>587.9833984375</ele>
        <time>2012-05-13T08:50:29Z</time>
      </trkpt>
      <trkpt lat="48.38912" lon="6.84117">
        <ele>587.50268554688</ele>
        <time>2012-05-13T08:50:32Z</time>
      </trkpt>
      <trkpt lat="48.38934" lon="6.84119">
        <ele>587.02197265625</ele>
        <time>2012-05-13T08:50:36Z</time>
      </trkpt>
      <trkpt lat="48.3895" lon="6.84127">
        <ele>588.46435546875</ele>
        <time>2012-05-13T08:50:40Z</time>
      </trkpt>
      <trkpt lat="48.38972" lon="6.84116">
        <ele>589.42553710938</ele>
        <time>2012-05-13T08:50:44Z</time>
      </trkpt>
      <trkpt lat="48.39001" lon="6.84068">
        <ele>588.46435546875</ele>
        <time>2012-05-13T08:50:49Z</time>
      </trkpt>
      <trkpt lat="48.39021" lon="6.84076">
        <ele>587.50268554688</ele>
        <time>2012-05-13T08:50:55Z</time>
      </trkpt>
      <trkpt lat="48.3899" lon="6.84086">
        <ele>587.9833984375</ele>
        <time>2012-05-13T08:50:58Z</time>
      </trkpt>
      <trkpt lat="48.3899" lon="6.84086">
        <ele>587.9833984375</ele>
        <time>2012-05-13T08:51:02Z</time>
      </trkpt>
      <trkpt lat="48.39055" lon="6.84089">
        <ele>588.46435546875</ele>
        <time>2012-05-13T08:51:08Z</time>
      </trkpt>
      <trkpt lat="48.39063" lon="6.84092">
        <ele>587.02197265625</ele>
        <time>2012-05-13T08:51:11Z</time>
      </trkpt>
      <trkpt lat="48.39072" lon="6.84094">
        <ele>586.06079101562</ele>
        <time>2012-05-13T08:51:13Z</time>
      </trkpt>
      <trkpt lat="48.39088" lon="6.84097">
        <ele>586.54150390625</ele>
        <time>2012-05-13T08:51:18Z</time>
      </trkpt>
      <trkpt lat="48.39112" lon="6.841">
        <ele>585.580078125</ele>
        <time>2012-05-13T08:51:24Z</time>
      </trkpt>
      <trkpt lat="48.3913" lon="6.84097">
        <ele>583.1767578125</ele>
        <time>2012-05-13T08:51:28Z</time>
      </trkpt>
      <trkpt lat="48.39137" lon="6.84095">
        <ele>580.29296875</ele>
        <time>2012-05-13T08:51:39Z</time>
      </trkpt>
      <trkpt lat="48.39137" lon="6.84095">
        <ele>580.29296875</ele>
        <time>2012-05-13T08:51:40Z</time>
      </trkpt>
      <trkpt lat="48.39143" lon="6.84094">
        <ele>579.81225585938</ele>
        <time>2012-05-13T08:51:44Z</time>
      </trkpt>
      <trkpt lat="48.39147" lon="6.84088">
        <ele>577.8896484375</ele>
        <time>2012-05-13T08:51:55Z</time>
      </trkpt>
      <trkpt lat="48.39129" lon="6.84023">
        <ele>575.96704101562</ele>
        <time>2012-05-13T08:52:07Z</time>
      </trkpt>
      <trkpt lat="48.39124" lon="6.8401">
        <ele>575.005859375</ele>
        <time>2012-05-13T08:52:09Z</time>
      </trkpt>
      <trkpt lat="48.3911" lon="6.83962">
        <ele>572.12182617188</ele>
        <time>2012-05-13T08:52:15Z</time>
      </trkpt>
      <trkpt lat="48.39103" lon="6.8394">
        <ele>569.71850585938</ele>
        <time>2012-05-13T08:52:24Z</time>
      </trkpt>
      <trkpt lat="48.39103" lon="6.8394">
        <ele>568.2763671875</ele>
        <time>2012-05-13T08:52:39Z</time>
      </trkpt>
      <trkpt lat="48.39103" lon="6.8394">
        <ele>568.2763671875</ele>
        <time>2012-05-13T08:52:48Z</time>
      </trkpt>
      <trkpt lat="48.39106" lon="6.83952">
        <ele>568.75708007812</ele>
        <time>2012-05-13T08:52:54Z</time>
      </trkpt>
      <trkpt lat="48.39144" lon="6.83976">
        <ele>564.91186523438</ele>
        <time>2012-05-13T08:53:03Z</time>
      </trkpt>
      <trkpt lat="48.39209" lon="6.8404">
        <ele>552.41455078125</ele>
        <time>2012-05-13T08:53:12Z</time>
      </trkpt>
      <trkpt lat="48.39232" lon="6.84067">
        <ele>548.0888671875</ele>
        <time>2012-05-13T08:53:15Z</time>
      </trkpt>
      <trkpt lat="48.39263" lon="6.84134">
        <ele>541.84020996094</ele>
        <time>2012-05-13T08:53:21Z</time>
      </trkpt>
      <trkpt lat="48.3926" lon="6.84186">
        <ele>538.47570800781</ele>
        <time>2012-05-13T08:53:25Z</time>
      </trkpt>
      <trkpt lat="48.39261" lon="6.84225">
        <ele>534.63037109375</ele>
        <time>2012-05-13T08:53:31Z</time>
      </trkpt>
      <trkpt lat="48.39261" lon="6.84225">
        <ele>533.6689453125</ele>
        <time>2012-05-13T08:53:47Z</time>
      </trkpt>
      <trkpt lat="48.39261" lon="6.84225">
        <ele>533.6689453125</ele>
        <time>2012-05-13T08:54:17Z</time>
      </trkpt>
      <trkpt lat="48.39229" lon="6.84228">
        <ele>528.86254882812</ele>
        <time>2012-05-13T08:54:25Z</time>
      </trkpt>
      <trkpt lat="48.39187" lon="6.84232">
        <ele>525.01721191406</ele>
        <time>2012-05-13T08:54:37Z</time>
      </trkpt>
      <trkpt lat="48.39155" lon="6.84316">
        <ele>524.53649902344</ele>
        <time>2012-05-13T08:54:44Z</time>
      </trkpt>
      <trkpt lat="48.3913" lon="6.84317">
        <ele>523.5751953125</ele>
        <time>2012-05-13T08:54:50Z</time>
      </trkpt>
      <trkpt lat="48.39113" lon="6.8434">
        <ele>522.61389160156</ele>
        <time>2012-05-13T08:54:54Z</time>
      </trkpt>
      <trkpt lat="48.39086" lon="6.84384">
        <ele>520.69128417969</ele>
        <time>2012-05-13T08:55:01Z</time>
      </trkpt>
      <trkpt lat="48.3908" lon="6.84426">
        <ele>518.28784179688</ele>
        <time>2012-05-13T08:55:06Z</time>
      </trkpt>
      <trkpt lat="48.39075" lon="6.84464">
        <ele>514.44262695312</ele>
        <time>2012-05-13T08:55:10Z</time>
      </trkpt>
      <trkpt lat="48.39071" lon="6.84499">
        <ele>509.63610839844</ele>
        <time>2012-05-13T08:55:16Z</time>
      </trkpt>
      <trkpt lat="48.39068" lon="6.84534">
        <ele>504.82946777344</ele>
        <time>2012-05-13T08:55:21Z</time>
      </trkpt>
      <trkpt lat="48.39065" lon="6.84563">
        <ele>500.98413085938</ele>
        <time>2012-05-13T08:55:25Z</time>
      </trkpt>
      <trkpt lat="48.39055" lon="6.84613">
        <ele>493.77429199219</ele>
        <time>2012-05-13T08:55:34Z</time>
      </trkpt>
      <trkpt lat="48.39053" lon="6.8462">
        <ele>492.81298828125</ele>
        <time>2012-05-13T08:55:36Z</time>
      </trkpt>
      <trkpt lat="48.39035" lon="6.84664">
        <ele>485.12243652344</ele>
        <time>2012-05-13T08:55:45Z</time>
      </trkpt>
      <trkpt lat="48.39013" lon="6.84686">
        <ele>479.83508300781</ele>
        <time>2012-05-13T08:55:51Z</time>
      </trkpt>
      <trkpt lat="48.39008" lon="6.8469">
        <ele>478.87390136719</ele>
        <time>2012-05-13T08:55:53Z</time>
      </trkpt>
      <trkpt lat="48.38993" lon="6.84703">
        <ele>476.95129394531</ele>
        <time>2012-05-13T08:56:00Z</time>
      </trkpt>
      <trkpt lat="48.38952" lon="6.84723">
        <ele>474.06726074219</ele>
        <time>2012-05-13T08:56:10Z</time>
      </trkpt>
      <trkpt lat="48.38948" lon="6.84725">
        <ele>472.14465332031</ele>
        <time>2012-05-13T08:56:12Z</time>
      </trkpt>
      <trkpt lat="48.38943" lon="6.84724">
        <ele>473.58666992188</ele>
        <time>2012-05-13T08:56:14Z</time>
      </trkpt>
      <trkpt lat="48.3893" lon="6.8472">
        <ele>472.62536621094</ele>
        <time>2012-05-13T08:56:18Z</time>
      </trkpt>
      <trkpt lat="48.38923" lon="6.84718">
        <ele>471.66394042969</ele>
        <time>2012-05-13T08:56:20Z</time>
      </trkpt>
      <trkpt lat="48.38911" lon="6.84715">
        <ele>470.22192382812</ele>
        <time>2012-05-13T08:56:23Z</time>
      </trkpt>
      <trkpt lat="48.38869" lon="6.84698">
        <ele>465.89611816406</ele>
        <time>2012-05-13T08:56:31Z</time>
      </trkpt>
      <trkpt lat="48.38835" lon="6.84673">
        <ele>459.16687011719</ele>
        <time>2012-05-13T08:56:40Z</time>
      </trkpt>
      <trkpt lat="48.388" lon="6.84647">
        <ele>453.39892578125</ele>
        <time>2012-05-13T08:56:49Z</time>
      </trkpt>
      <trkpt lat="48.38795" lon="6.84643">
        <ele>458.20556640625</ele>
        <time>2012-05-13T08:56:53Z</time>
      </trkpt>
      <trkpt lat="48.38786" lon="6.84636">
        <ele>459.64758300781</ele>
        <time>2012-05-13T08:56:58Z</time>
      </trkpt>
      <trkpt lat="48.38781" lon="6.84644">
        <ele>457.72497558594</ele>
        <time>2012-05-13T08:57:04Z</time>
      </trkpt>
      <trkpt lat="48.38795" lon="6.8467">
        <ele>452.91821289062</ele>
        <time>2012-05-13T08:57:10Z</time>
      </trkpt>
      <trkpt lat="48.38804" lon="6.84692">
        <ele>451.47631835938</ele>
        <time>2012-05-13T08:57:14Z</time>
      </trkpt>
      <trkpt lat="48.38827" lon="6.84743">
        <ele>446.66967773438</ele>
        <time>2012-05-13T08:57:20Z</time>
      </trkpt>
      <trkpt lat="48.38842" lon="6.84774">
        <ele>445.22766113281</ele>
        <time>2012-05-13T08:57:24Z</time>
      </trkpt>
      <trkpt lat="48.38838" lon="6.84834">
        <ele>442.82446289062</ele>
        <time>2012-05-13T08:57:28Z</time>
      </trkpt>
      <trkpt lat="48.38872" lon="6.84886">
        <ele>437.05651855469</ele>
        <time>2012-05-13T08:57:36Z</time>
      </trkpt>
      <trkpt lat="48.38881" lon="6.84888">
        <ele>436.09521484375</ele>
        <time>2012-05-13T08:57:38Z</time>
      </trkpt>
      <trkpt lat="48.38923" lon="6.84895">
        <ele>430.32727050781</ele>
        <time>2012-05-13T08:57:47Z</time>
      </trkpt>
      <trkpt lat="48.38951" lon="6.84901">
        <ele>427.92395019531</ele>
        <time>2012-05-13T08:57:53Z</time>
      </trkpt>
      <trkpt lat="48.38986" lon="6.8491">
        <ele>423.59802246094</ele>
        <time>2012-05-13T08:57:57Z</time>
      </trkpt>
      <trkpt lat="48.39021" lon="6.84915">
        <ele>420.2333984375</ele>
        <time>2012-05-13T08:58:01Z</time>
      </trkpt>
      <trkpt lat="48.39044" lon="6.84917">
        <ele>416.38818359375</ele>
        <time>2012-05-13T08:58:05Z</time>
      </trkpt>
      <trkpt lat="48.39064" lon="6.84918">
        <ele>415.42687988281</ele>
        <time>2012-05-13T08:58:08Z</time>
      </trkpt>
      <trkpt lat="48.39097" lon="6.8492">
        <ele>411.58166503906</ele>
        <time>2012-05-13T08:58:13Z</time>
      </trkpt>
      <trkpt lat="48.39136" lon="6.84919">
        <ele>406.77490234375</ele>
        <time>2012-05-13T08:58:19Z</time>
      </trkpt>
      <trkpt lat="48.39155" lon="6.84895">
        <ele>405.81372070312</ele>
        <time>2012-05-13T08:58:22Z</time>
      </trkpt>
      <trkpt lat="48.39186" lon="6.84825">
        <ele>400.52648925781</ele>
        <time>2012-05-13T08:58:31Z</time>
      </trkpt>
      <trkpt lat="48.39226" lon="6.84751">
        <ele>398.12316894531</ele>
        <time>2012-05-13T08:58:42Z</time>
      </trkpt>
      <trkpt lat="48.39235" lon="6.84723">
        <ele>397.16174316406</ele>
        <time>2012-05-13T08:58:46Z</time>
      </trkpt>
      <trkpt lat="48.39249" lon="6.84662">
        <ele>394.27795410156</ele>
        <time>2012-05-13T08:58:53Z</time>
      </trkpt>
      <trkpt lat="48.39257" lon="6.84629">
        <ele>392.8359375</ele>
        <time>2012-05-13T08:58:57Z</time>
      </trkpt>
      <trkpt lat="48.39274" lon="6.84605">
        <ele>391.87451171875</ele>
        <time>2012-05-13T08:59:03Z</time>
      </trkpt>
      <trkpt lat="48.39281" lon="6.84599">
        <ele>390.91320800781</ele>
        <time>2012-05-13T08:59:05Z</time>
      </trkpt>
      <trkpt lat="48.39307" lon="6.84593">
        <ele>388.99060058594</ele>
        <time>2012-05-13T08:59:13Z</time>
      </trkpt>
      <trkpt lat="48.39329" lon="6.8466">
        <ele>387.06799316406</ele>
        <time>2012-05-13T08:59:20Z</time>
      </trkpt>
      <trkpt lat="48.39364" lon="6.84626">
        <ele>383.70324707031</ele>
        <time>2012-05-13T08:59:25Z</time>
      </trkpt>
      <trkpt lat="48.39396" lon="6.84636">
        <ele>375.53210449219</ele>
        <time>2012-05-13T08:59:30Z</time>
      </trkpt>
      <trkpt lat="48.39411" lon="6.84614">
        <ele>373.12890625</ele>
        <time>2012-05-13T08:59:32Z</time>
      </trkpt>
      <trkpt lat="48.39425" lon="6.84604">
        <ele>372.64819335938</ele>
        <time>2012-05-13T08:59:34Z</time>
      </trkpt>
      <trkpt lat="48.39443" lon="6.84591">
        <ele>369.76428222656</ele>
        <time>2012-05-13T08:59:37Z</time>
      </trkpt>
      <trkpt lat="48.39462" lon="6.84575">
        <ele>362.07373046875</ele>
        <time>2012-05-13T08:59:41Z</time>
      </trkpt>
      <trkpt lat="48.39486" lon="6.84547">
        <ele>360.15112304688</ele>
        <time>2012-05-13T08:59:45Z</time>
      </trkpt>
      <trkpt lat="48.39502" lon="6.84529">
        <ele>356.78637695312</ele>
        <time>2012-05-13T08:59:48Z</time>
      </trkpt>
      <trkpt lat="48.39547" lon="6.84486">
        <ele>351.49914550781</ele>
        <time>2012-05-13T08:59:56Z</time>
      </trkpt>
      <trkpt lat="48.39569" lon="6.84467">
        <ele>350.05725097656</ele>
        <time>2012-05-13T09:00:00Z</time>
      </trkpt>
      <trkpt lat="48.39596" lon="6.8446">
        <ele>344.28942871094</ele>
        <time>2012-05-13T09:00:05Z</time>
      </trkpt>
      <trkpt lat="48.39594" lon="6.84466">
        <ele>341.88598632812</ele>
        <time>2012-05-13T09:00:08Z</time>
      </trkpt>
      <trkpt lat="48.39593" lon="6.84472">
        <ele>344.28942871094</ele>
        <time>2012-05-13T09:00:20Z</time>
      </trkpt>
      <trkpt lat="48.39593" lon="6.84472">
        <ele>343.32788085938</ele>
        <time>2012-05-13T09:01:42Z</time>
      </trkpt>
      <trkpt lat="48.39592" lon="6.84475">
        <ele>344.28942871094</ele>
        <time>2012-05-13T09:01:58Z</time>
      </trkpt>
      <trkpt lat="48.39583" lon="6.84464">
        <ele>344.28942871094</ele>
        <time>2012-05-13T09:02:08Z</time>
      </trkpt>
      <trkpt lat="48.39579" lon="6.84457">
        <ele>345.73132324219</ele>
        <time>2012-05-13T09:02:19Z</time>
      </trkpt>
      <trkpt lat="48.3957" lon="6.84455">
        <ele>347.65393066406</ele>
        <time>2012-05-13T09:02:35Z</time>
      </trkpt>
      <trkpt lat="48.39569" lon="6.84457">
        <ele>349.09582519531</ele>
        <time>2012-05-13T09:02:37Z</time>
      </trkpt>
      <trkpt lat="48.39567" lon="6.84462">
        <ele>349.57653808594</ele>
        <time>2012-05-13T09:02:40Z</time>
      </trkpt>
      <trkpt lat="48.39566" lon="6.84466">
        <ele>350.53784179688</ele>
        <time>2012-05-13T09:02:42Z</time>
      </trkpt>
      <trkpt lat="48.39549" lon="6.8449">
        <ele>353.90258789062</ele>
        <time>2012-05-13T09:02:53Z</time>
      </trkpt>
      <trkpt lat="48.39536" lon="6.84512">
        <ele>355.8251953125</ele>
        <time>2012-05-13T09:03:06Z</time>
      </trkpt>
      <trkpt lat="48.39527" lon="6.84522">
        <ele>359.18969726562</ele>
        <time>2012-05-13T09:03:13Z</time>
      </trkpt>
      <trkpt lat="48.39511" lon="6.84547">
        <ele>363.03503417969</ele>
        <time>2012-05-13T09:03:26Z</time>
      </trkpt>
      <trkpt lat="48.39497" lon="6.84558">
        <ele>364.47692871094</ele>
        <time>2012-05-13T09:03:38Z</time>
      </trkpt>
      <trkpt lat="48.39497" lon="6.8456">
        <ele>364.47692871094</ele>
        <time>2012-05-13T09:03:51Z</time>
      </trkpt>
      <trkpt lat="48.39482" lon="6.84575">
        <ele>367.36096191406</ele>
        <time>2012-05-13T09:04:02Z</time>
      </trkpt>
      <trkpt lat="48.3947" lon="6.84587">
        <ele>367.36096191406</ele>
        <time>2012-05-13T09:04:20Z</time>
      </trkpt>
      <trkpt lat="48.3944" lon="6.846">
        <ele>367.84155273438</ele>
        <time>2012-05-13T09:04:35Z</time>
      </trkpt>
      <trkpt lat="48.39418" lon="6.84625">
        <ele>371.20629882812</ele>
        <time>2012-05-13T09:04:47Z</time>
      </trkpt>
      <trkpt lat="48.39396" lon="6.84645">
        <ele>376.49353027344</ele>
        <time>2012-05-13T09:04:57Z</time>
      </trkpt>
      <trkpt lat="48.39381" lon="6.84647">
        <ele>377.93542480469</ele>
        <time>2012-05-13T09:05:04Z</time>
      </trkpt>
      <trkpt lat="48.39375" lon="6.84648">
        <ele>376.49353027344</ele>
        <time>2012-05-13T09:05:07Z</time>
      </trkpt>
      <trkpt lat="48.39368" lon="6.84646">
        <ele>378.41613769531</ele>
        <time>2012-05-13T09:05:11Z</time>
      </trkpt>
      <trkpt lat="48.39364" lon="6.84641">
        <ele>379.85803222656</ele>
        <time>2012-05-13T09:05:14Z</time>
      </trkpt>
      <trkpt lat="48.39355" lon="6.84628">
        <ele>383.22265625</ele>
        <time>2012-05-13T09:05:21Z</time>
      </trkpt>
      <trkpt lat="48.39324" lon="6.84614">
        <ele>390.91320800781</ele>
        <time>2012-05-13T09:05:36Z</time>
      </trkpt>
      <trkpt lat="48.39313" lon="6.8461">
        <ele>390.91320800781</ele>
        <time>2012-05-13T09:05:40Z</time>
      </trkpt>
      <trkpt lat="48.39293" lon="6.84605">
        <ele>393.79724121094</ele>
        <time>2012-05-13T09:05:49Z</time>
      </trkpt>
      <trkpt lat="48.39289" lon="6.84603">
        <ele>393.79724121094</ele>
        <time>2012-05-13T09:05:52Z</time>
      </trkpt>
      <trkpt lat="48.39287" lon="6.84598">
        <ele>393.79724121094</ele>
        <time>2012-05-13T09:05:57Z</time>
      </trkpt>
      <trkpt lat="48.39288" lon="6.84601">
        <ele>395.23913574219</ele>
        <time>2012-05-13T09:06:09Z</time>
      </trkpt>
      <trkpt lat="48.39284" lon="6.84601">
        <ele>395.71984863281</ele>
        <time>2012-05-13T09:06:26Z</time>
      </trkpt>
      <trkpt lat="48.39281" lon="6.84609">
        <ele>402.44909667969</ele>
        <time>2012-05-13T09:10:34Z</time>
      </trkpt>
      <trkpt lat="48.39273" lon="6.84623">
        <ele>399.08435058594</ele>
        <time>2012-05-13T09:10:59Z</time>
      </trkpt>
      <trkpt lat="48.39266" lon="6.84639">
        <ele>398.12316894531</ele>
        <time>2012-05-13T09:11:09Z</time>
      </trkpt>
      <trkpt lat="48.39265" lon="6.84644">
        <ele>399.08435058594</ele>
        <time>2012-05-13T09:11:11Z</time>
      </trkpt>
      <trkpt lat="48.39257" lon="6.84671">
        <ele>402.9296875</ele>
        <time>2012-05-13T09:11:23Z</time>
      </trkpt>
      <trkpt lat="48.3925" lon="6.84685">
        <ele>404.85229492188</ele>
        <time>2012-05-13T09:11:27Z</time>
      </trkpt>
      <trkpt lat="48.39249" lon="6.84692">
        <ele>405.81372070312</ele>
        <time>2012-05-13T09:11:29Z</time>
      </trkpt>
      <trkpt lat="48.39248" lon="6.847">
        <ele>406.77490234375</ele>
        <time>2012-05-13T09:11:31Z</time>
      </trkpt>
      <trkpt lat="48.39239" lon="6.84728">
        <ele>408.21704101562</ele>
        <time>2012-05-13T09:11:43Z</time>
      </trkpt>
      <trkpt lat="48.39225" lon="6.84749">
        <ele>411.58166503906</ele>
        <time>2012-05-13T09:11:56Z</time>
      </trkpt>
      <trkpt lat="48.39216" lon="6.84767">
        <ele>413.02355957031</ele>
        <time>2012-05-13T09:12:02Z</time>
      </trkpt>
      <trkpt lat="48.3921" lon="6.84777">
        <ele>413.50427246094</ele>
        <time>2012-05-13T09:12:08Z</time>
      </trkpt>
      <trkpt lat="48.39202" lon="6.8481">
        <ele>415.42687988281</ele>
        <time>2012-05-13T09:12:20Z</time>
      </trkpt>
      <trkpt lat="48.39202" lon="6.84812">
        <ele>415.90747070312</ele>
        <time>2012-05-13T09:12:21Z</time>
      </trkpt>
      <trkpt lat="48.39193" lon="6.84828">
        <ele>414.94616699219</ele>
        <time>2012-05-13T09:12:29Z</time>
      </trkpt>
      <trkpt lat="48.39178" lon="6.84855">
        <ele>415.42687988281</ele>
        <time>2012-05-13T09:12:42Z</time>
      </trkpt>
      <trkpt lat="48.39161" lon="6.8488">
        <ele>414.94616699219</ele>
        <time>2012-05-13T09:12:51Z</time>
      </trkpt>
      <trkpt lat="48.39155" lon="6.84888">
        <ele>414.94616699219</ele>
        <time>2012-05-13T09:12:56Z</time>
      </trkpt>
      <trkpt lat="48.39151" lon="6.84895">
        <ele>415.42687988281</ele>
        <time>2012-05-13T09:12:59Z</time>
      </trkpt>
      <trkpt lat="48.39145" lon="6.84903">
        <ele>415.42687988281</ele>
        <time>2012-05-13T09:13:02Z</time>
      </trkpt>
      <trkpt lat="48.39126" lon="6.84915">
        <ele>417.349609375</ele>
        <time>2012-05-13T09:13:12Z</time>
      </trkpt>
      <trkpt lat="48.39111" lon="6.84924">
        <ele>419.27221679688</ele>
        <time>2012-05-13T09:13:21Z</time>
      </trkpt>
      <trkpt lat="48.39108" lon="6.84929">
        <ele>419.75280761719</ele>
        <time>2012-05-13T09:13:34Z</time>
      </trkpt>
      <trkpt lat="48.39109" lon="6.84925">
        <ele>419.27221679688</ele>
        <time>2012-05-13T09:13:38Z</time>
      </trkpt>
      <trkpt lat="48.39113" lon="6.84907">
        <ele>415.42687988281</ele>
        <time>2012-05-13T09:13:45Z</time>
      </trkpt>
      <trkpt lat="48.39113" lon="6.84904">
        <ele>414.94616699219</ele>
        <time>2012-05-13T09:13:47Z</time>
      </trkpt>
      <trkpt lat="48.39115" lon="6.84897">
        <ele>414.94616699219</ele>
        <time>2012-05-13T09:13:50Z</time>
      </trkpt>
      <trkpt lat="48.39118" lon="6.84892">
        <ele>414.94616699219</ele>
        <time>2012-05-13T09:13:53Z</time>
      </trkpt>
      <trkpt lat="48.39128" lon="6.84867">
        <ele>414.46545410156</ele>
        <time>2012-05-13T09:14:05Z</time>
      </trkpt>
      <trkpt lat="48.39135" lon="6.8484">
        <ele>412.54284667969</ele>
        <time>2012-05-13T09:14:15Z</time>
      </trkpt>
      <trkpt lat="48.39141" lon="6.8482">
        <ele>414.46545410156</ele>
        <time>2012-05-13T09:14:22Z</time>
      </trkpt>
      <trkpt lat="48.39143" lon="6.84808">
        <ele>414.46545410156</ele>
        <time>2012-05-13T09:14:25Z</time>
      </trkpt>
      <trkpt lat="48.39152" lon="6.84779">
        <ele>414.94616699219</ele>
        <time>2012-05-13T09:14:36Z</time>
      </trkpt>
      <trkpt lat="48.39153" lon="6.84777">
        <ele>415.42687988281</ele>
        <time>2012-05-13T09:14:37Z</time>
      </trkpt>
      <trkpt lat="48.39158" lon="6.8475">
        <ele>416.86889648438</ele>
        <time>2012-05-13T09:14:47Z</time>
      </trkpt>
      <trkpt lat="48.39161" lon="6.84743">
        <ele>417.349609375</ele>
        <time>2012-05-13T09:14:50Z</time>
      </trkpt>
      <trkpt lat="48.39161" lon="6.84734">
        <ele>417.349609375</ele>
        <time>2012-05-13T09:14:54Z</time>
      </trkpt>
      <trkpt lat="48.39165" lon="6.84716">
        <ele>418.79150390625</ele>
        <time>2012-05-13T09:14:59Z</time>
      </trkpt>
      <trkpt lat="48.39166" lon="6.84691">
        <ele>418.79150390625</ele>
        <time>2012-05-13T09:15:08Z</time>
      </trkpt>
      <trkpt lat="48.39165" lon="6.84674">
        <ele>416.38818359375</ele>
        <time>2012-05-13T09:15:14Z</time>
      </trkpt>
      <trkpt lat="48.39165" lon="6.84657">
        <ele>417.349609375</ele>
        <time>2012-05-13T09:15:20Z</time>
      </trkpt>
      <trkpt lat="48.39167" lon="6.84647">
        <ele>420.71411132812</ele>
        <time>2012-05-13T09:15:23Z</time>
      </trkpt>
      <trkpt lat="48.39166" lon="6.84641">
        <ele>422.63671875</ele>
        <time>2012-05-13T09:15:27Z</time>
      </trkpt>
      <trkpt lat="48.39168" lon="6.8461">
        <ele>425.52075195312</ele>
        <time>2012-05-13T09:15:38Z</time>
      </trkpt>
      <trkpt lat="48.39168" lon="6.84598">
        <ele>427.443359375</ele>
        <time>2012-05-13T09:15:43Z</time>
      </trkpt>
      <trkpt lat="48.39167" lon="6.8459">
        <ele>427.443359375</ele>
        <time>2012-05-13T09:15:47Z</time>
      </trkpt>
      <trkpt lat="48.39169" lon="6.84563">
        <ele>430.32727050781</ele>
        <time>2012-05-13T09:15:56Z</time>
      </trkpt>
      <trkpt lat="48.39166" lon="6.84549">
        <ele>429.84655761719</ele>
        <time>2012-05-13T09:16:01Z</time>
      </trkpt>
      <trkpt lat="48.39163" lon="6.84543">
        <ele>431.76916503906</ele>
        <time>2012-05-13T09:16:14Z</time>
      </trkpt>
      <trkpt lat="48.3916" lon="6.84537">
        <ele>433.69189453125</ele>
        <time>2012-05-13T09:16:21Z</time>
      </trkpt>
      <trkpt lat="48.3916" lon="6.8453">
        <ele>434.6533203125</ele>
        <time>2012-05-13T09:16:26Z</time>
      </trkpt>
      <trkpt lat="48.39155" lon="6.84525">
        <ele>435.61450195312</ele>
        <time>2012-05-13T09:16:41Z</time>
      </trkpt>
      <trkpt lat="48.39157" lon="6.84519">
        <ele>436.09521484375</ele>
        <time>2012-05-13T09:16:54Z</time>
      </trkpt>
      <trkpt lat="48.39162" lon="6.84483">
        <ele>437.05651855469</ele>
        <time>2012-05-13T09:17:07Z</time>
      </trkpt>
      <trkpt lat="48.39176" lon="6.84458">
        <ele>439.9404296875</ele>
        <time>2012-05-13T09:17:20Z</time>
      </trkpt>
      <trkpt lat="48.39191" lon="6.8445">
        <ele>444.26647949219</ele>
        <time>2012-05-13T09:17:29Z</time>
      </trkpt>
      <trkpt lat="48.39201" lon="6.84445">
        <ele>446.18908691406</ele>
        <time>2012-05-13T09:17:35Z</time>
      </trkpt>
      <trkpt lat="48.39206" lon="6.84435">
        <ele>446.18908691406</ele>
        <time>2012-05-13T09:17:39Z</time>
      </trkpt>
      <trkpt lat="48.3921" lon="6.84432">
        <ele>447.63098144531</ele>
        <time>2012-05-13T09:17:41Z</time>
      </trkpt>
      <trkpt lat="48.39215" lon="6.84429">
        <ele>448.59240722656</ele>
        <time>2012-05-13T09:17:44Z</time>
      </trkpt>
      <trkpt lat="48.39226" lon="6.84427">
        <ele>453.87963867188</ele>
        <time>2012-05-13T09:17:51Z</time>
      </trkpt>
      <trkpt lat="48.39247" lon="6.84416">
        <ele>456.28295898438</ele>
        <time>2012-05-13T09:18:02Z</time>
      </trkpt>
      <trkpt lat="48.39249" lon="6.84415">
        <ele>457.24426269531</ele>
        <time>2012-05-13T09:18:03Z</time>
      </trkpt>
      <trkpt lat="48.39252" lon="6.84416">
        <ele>457.72497558594</ele>
        <time>2012-05-13T09:18:05Z</time>
      </trkpt>
      <trkpt lat="48.39264" lon="6.84413">
        <ele>461.57019042969</ele>
        <time>2012-05-13T09:18:11Z</time>
      </trkpt>
      <trkpt lat="48.39269" lon="6.8441">
        <ele>461.57019042969</ele>
        <time>2012-05-13T09:18:13Z</time>
      </trkpt>
      <trkpt lat="48.39283" lon="6.84402">
        <ele>463.97338867188</ele>
        <time>2012-05-13T09:18:21Z</time>
      </trkpt>
      <trkpt lat="48.39299" lon="6.84385">
        <ele>462.05078125</ele>
        <time>2012-05-13T09:18:27Z</time>
      </trkpt>
      <trkpt lat="48.39301" lon="6.84382">
        <ele>462.53137207031</ele>
        <time>2012-05-13T09:18:29Z</time>
      </trkpt>
      <trkpt lat="48.39312" lon="6.84369">
        <ele>463.49279785156</ele>
        <time>2012-05-13T09:18:36Z</time>
      </trkpt>
      <trkpt lat="48.39315" lon="6.84366">
        <ele>463.97338867188</ele>
        <time>2012-05-13T09:18:39Z</time>
      </trkpt>
      <trkpt lat="48.39332" lon="6.84345">
        <ele>464.4541015625</ele>
        <time>2012-05-13T09:18:50Z</time>
      </trkpt>
      <trkpt lat="48.39336" lon="6.84339">
        <ele>463.01208496094</ele>
        <time>2012-05-13T09:18:54Z</time>
      </trkpt>
      <trkpt lat="48.39349" lon="6.84315">
        <ele>463.01208496094</ele>
        <time>2012-05-13T09:19:04Z</time>
      </trkpt>
      <trkpt lat="48.39361" lon="6.84288">
        <ele>463.01208496094</ele>
        <time>2012-05-13T09:19:16Z</time>
      </trkpt>
      <trkpt lat="48.39363" lon="6.84285">
        <ele>463.01208496094</ele>
        <time>2012-05-13T09:19:18Z</time>
      </trkpt>
      <trkpt lat="48.39367" lon="6.84273">
        <ele>462.53137207031</ele>
        <time>2012-05-13T09:19:23Z</time>
      </trkpt>
      <trkpt lat="48.39367" lon="6.84265">
        <ele>462.53137207031</ele>
        <time>2012-05-13T09:19:26Z</time>
      </trkpt>
      <trkpt lat="48.3937" lon="6.84251">
        <ele>463.01208496094</ele>
        <time>2012-05-13T09:19:32Z</time>
      </trkpt>
      <trkpt lat="48.39379" lon="6.84225">
        <ele>463.01208496094</ele>
        <time>2012-05-13T09:19:43Z</time>
      </trkpt>
      <trkpt lat="48.39388" lon="6.84193">
        <ele>464.4541015625</ele>
        <time>2012-05-13T09:19:57Z</time>
      </trkpt>
      <trkpt lat="48.39391" lon="6.84179">
        <ele>464.93481445312</ele>
        <time>2012-05-13T09:20:03Z</time>
      </trkpt>
      <trkpt lat="48.39391" lon="6.84174">
        <ele>465.41552734375</ele>
        <time>2012-05-13T09:20:05Z</time>
      </trkpt>
      <trkpt lat="48.3939" lon="6.84165">
        <ele>465.41552734375</ele>
        <time>2012-05-13T09:20:09Z</time>
      </trkpt>
      <trkpt lat="48.39392" lon="6.84158">
        <ele>465.89611816406</ele>
        <time>2012-05-13T09:20:12Z</time>
      </trkpt>
      <trkpt lat="48.39393" lon="6.84136">
        <ele>467.81872558594</ele>
        <time>2012-05-13T09:20:20Z</time>
      </trkpt>
      <trkpt lat="48.3939" lon="6.84125">
        <ele>467.81872558594</ele>
        <time>2012-05-13T09:20:24Z</time>
      </trkpt>
      <trkpt lat="48.3939" lon="6.8411">
        <ele>469.74133300781</ele>
        <time>2012-05-13T09:20:29Z</time>
      </trkpt>
      <trkpt lat="48.39391" lon="6.84101">
        <ele>471.18334960938</ele>
        <time>2012-05-13T09:20:32Z</time>
      </trkpt>
      <trkpt lat="48.39385" lon="6.84075">
        <ele>475.50927734375</ele>
        <time>2012-05-13T09:20:43Z</time>
      </trkpt>
      <trkpt lat="48.3938" lon="6.84056">
        <ele>476.95129394531</ele>
        <time>2012-05-13T09:20:50Z</time>
      </trkpt>
      <trkpt lat="48.39373" lon="6.84035">
        <ele>483.68041992188</ele>
        <time>2012-05-13T09:20:59Z</time>
      </trkpt>
      <trkpt lat="48.39372" lon="6.84026">
        <ele>486.08374023438</ele>
        <time>2012-05-13T09:21:02Z</time>
      </trkpt>
      <trkpt lat="48.39365" lon="6.84003">
        <ele>491.37097167969</ele>
        <time>2012-05-13T09:21:13Z</time>
      </trkpt>
      <trkpt lat="48.39362" lon="6.83997">
        <ele>493.29357910156</ele>
        <time>2012-05-13T09:21:16Z</time>
      </trkpt>
      <trkpt lat="48.39352" lon="6.83983">
        <ele>495.69689941406</ele>
        <time>2012-05-13T09:21:22Z</time>
      </trkpt>
      <trkpt lat="48.39349" lon="6.83976">
        <ele>497.13891601562</ele>
        <time>2012-05-13T09:21:25Z</time>
      </trkpt>
      <trkpt lat="48.39347" lon="6.83973">
        <ele>498.58093261719</ele>
        <time>2012-05-13T09:21:27Z</time>
      </trkpt>
      <trkpt lat="48.39336" lon="6.8396">
        <ele>498.58093261719</ele>
        <time>2012-05-13T09:21:33Z</time>
      </trkpt>
      <trkpt lat="48.39334" lon="6.83959">
        <ele>499.0615234375</ele>
        <time>2012-05-13T09:21:35Z</time>
      </trkpt>
      <trkpt lat="48.39327" lon="6.83952">
        <ele>498.10034179688</ele>
        <time>2012-05-13T09:21:38Z</time>
      </trkpt>
      <trkpt lat="48.39324" lon="6.83947">
        <ele>498.58093261719</ele>
        <time>2012-05-13T09:21:41Z</time>
      </trkpt>
      <trkpt lat="48.39311" lon="6.83937">
        <ele>497.61962890625</ele>
        <time>2012-05-13T09:21:53Z</time>
      </trkpt>
      <trkpt lat="48.39308" lon="6.83931">
        <ele>499.54223632812</ele>
        <time>2012-05-13T09:22:08Z</time>
      </trkpt>
      <trkpt lat="48.39308" lon="6.83932">
        <ele>499.54223632812</ele>
        <time>2012-05-13T09:22:23Z</time>
      </trkpt>
      <trkpt lat="48.39321" lon="6.83967">
        <ele>504.34887695312</ele>
        <time>2012-05-13T09:22:38Z</time>
      </trkpt>
      <trkpt lat="48.39336" lon="6.84011">
        <ele>508.67468261719</ele>
        <time>2012-05-13T09:22:54Z</time>
      </trkpt>
      <trkpt lat="48.39339" lon="6.84032">
        <ele>510.11669921875</ele>
        <time>2012-05-13T09:23:01Z</time>
      </trkpt>
      <trkpt lat="48.39344" lon="6.84067">
        <ele>512.52001953125</ele>
        <time>2012-05-13T09:23:15Z</time>
      </trkpt>
      <trkpt lat="48.39344" lon="6.84094">
        <ele>514.44262695312</ele>
        <time>2012-05-13T09:23:25Z</time>
      </trkpt>
      <trkpt lat="48.39335" lon="6.84136">
        <ele>518.28784179688</ele>
        <time>2012-05-13T09:23:39Z</time>
      </trkpt>
      <trkpt lat="48.39322" lon="6.84173">
        <ele>524.05578613281</ele>
        <time>2012-05-13T09:23:55Z</time>
      </trkpt>
      <trkpt lat="48.39295" lon="6.84211">
        <ele>528.3818359375</ele>
        <time>2012-05-13T09:24:16Z</time>
      </trkpt>
      <trkpt lat="48.39279" lon="6.84223">
        <ele>530.30444335938</ele>
        <time>2012-05-13T09:24:28Z</time>
      </trkpt>
      <trkpt lat="48.39274" lon="6.84224">
        <ele>530.30444335938</ele>
        <time>2012-05-13T09:24:31Z</time>
      </trkpt>
      <trkpt lat="48.39271" lon="6.84224">
        <ele>530.78515625</ele>
        <time>2012-05-13T09:24:33Z</time>
      </trkpt>
      <trkpt lat="48.39258" lon="6.84216">
        <ele>530.78515625</ele>
        <time>2012-05-13T09:24:43Z</time>
      </trkpt>
      <trkpt lat="48.39259" lon="6.84189">
        <ele>533.6689453125</ele>
        <time>2012-05-13T09:24:56Z</time>
      </trkpt>
      <trkpt lat="48.39262" lon="6.84176">
        <ele>535.59155273438</ele>
        <time>2012-05-13T09:25:02Z</time>
      </trkpt>
      <trkpt lat="48.39261" lon="6.84163">
        <ele>536.55310058594</ele>
        <time>2012-05-13T09:25:08Z</time>
      </trkpt>
      <trkpt lat="48.3926" lon="6.84144">
        <ele>539.43688964844</ele>
        <time>2012-05-13T09:25:16Z</time>
      </trkpt>
      <trkpt lat="48.39251" lon="6.84115">
        <ele>541.35949707031</ele>
        <time>2012-05-13T09:25:29Z</time>
      </trkpt>
      <trkpt lat="48.39243" lon="6.84096">
        <ele>540.87890625</ele>
        <time>2012-05-13T09:25:39Z</time>
      </trkpt>
      <trkpt lat="48.39226" lon="6.84067">
        <ele>542.80151367188</ele>
        <time>2012-05-13T09:25:57Z</time>
      </trkpt>
      <trkpt lat="48.3921" lon="6.84046">
        <ele>547.60815429688</ele>
        <time>2012-05-13T09:26:11Z</time>
      </trkpt>
      <trkpt lat="48.3919" lon="6.84023">
        <ele>551.93408203125</ele>
        <time>2012-05-13T09:26:27Z</time>
      </trkpt>
      <trkpt lat="48.39168" lon="6.83999">
        <ele>556.74072265625</ele>
        <time>2012-05-13T09:26:42Z</time>
      </trkpt>
      <trkpt lat="48.39149" lon="6.83981">
        <ele>559.14404296875</ele>
        <time>2012-05-13T09:26:56Z</time>
      </trkpt>
      <trkpt lat="48.39144" lon="6.83977">
        <ele>560.10522460938</ele>
        <time>2012-05-13T09:27:00Z</time>
      </trkpt>
      <trkpt lat="48.39138" lon="6.83972">
        <ele>560.5859375</ele>
        <time>2012-05-13T09:27:05Z</time>
      </trkpt>
      <trkpt lat="48.39114" lon="6.83953">
        <ele>564.91186523438</ele>
        <time>2012-05-13T09:27:22Z</time>
      </trkpt>
      <trkpt lat="48.39111" lon="6.83951">
        <ele>565.392578125</ele>
        <time>2012-05-13T09:27:24Z</time>
      </trkpt>
      <trkpt lat="48.39108" lon="6.83949">
        <ele>565.392578125</ele>
        <time>2012-05-13T09:27:26Z</time>
      </trkpt>
      <trkpt lat="48.39103" lon="6.83941">
        <ele>565.87329101562</ele>
        <time>2012-05-13T09:27:32Z</time>
      </trkpt>
      <trkpt lat="48.39101" lon="6.83938">
        <ele>567.31518554688</ele>
        <time>2012-05-13T09:27:54Z</time>
      </trkpt>
      <trkpt lat="48.39099" lon="6.83927">
        <ele>563.95043945312</ele>
        <time>2012-05-13T09:28:19Z</time>
      </trkpt>
      <trkpt lat="48.39098" lon="6.83921">
        <ele>562.50854492188</ele>
        <time>2012-05-13T09:28:33Z</time>
      </trkpt>
      <trkpt lat="48.39091" lon="6.839">
        <ele>562.02807617188</ele>
        <time>2012-05-13T09:28:39Z</time>
      </trkpt>
      <trkpt lat="48.39075" lon="6.83832">
        <ele>558.66333007812</ele>
        <time>2012-05-13T09:28:48Z</time>
      </trkpt>
      <trkpt lat="48.39072" lon="6.8379">
        <ele>556.74072265625</ele>
        <time>2012-05-13T09:28:53Z</time>
      </trkpt>
      <trkpt lat="48.39065" lon="6.83699">
        <ele>554.81787109375</ele>
        <time>2012-05-13T09:29:03Z</time>
      </trkpt>
      <trkpt lat="48.3906" lon="6.83602">
        <ele>547.12744140625</ele>
        <time>2012-05-13T09:29:12Z</time>
      </trkpt>
      <trkpt lat="48.39058" lon="6.83582">
        <ele>546.16625976562</ele>
        <time>2012-05-13T09:29:14Z</time>
      </trkpt>
      <trkpt lat="48.39038" lon="6.83476">
        <ele>540.87890625</ele>
        <time>2012-05-13T09:29:24Z</time>
      </trkpt>
      <trkpt lat="48.39034" lon="6.83452">
        <ele>539.43688964844</ele>
        <time>2012-05-13T09:29:27Z</time>
      </trkpt>
      <trkpt lat="48.39031" lon="6.83432">
        <ele>537.99499511719</ele>
        <time>2012-05-13T09:29:30Z</time>
      </trkpt>
      <trkpt lat="48.39025" lon="6.83391">
        <ele>536.55310058594</ele>
        <time>2012-05-13T09:29:35Z</time>
      </trkpt>
      <trkpt lat="48.39022" lon="6.83267">
        <ele>529.34313964844</ele>
        <time>2012-05-13T09:29:46Z</time>
      </trkpt>
      <trkpt lat="48.39027" lon="6.8319">
        <ele>524.05578613281</ele>
        <time>2012-05-13T09:29:54Z</time>
      </trkpt>
      <trkpt lat="48.39033" lon="6.83128">
        <ele>513.00073242188</ele>
        <time>2012-05-13T09:30:03Z</time>
      </trkpt>
      <trkpt lat="48.39035" lon="6.83117">
        <ele>512.52001953125</ele>
        <time>2012-05-13T09:30:05Z</time>
      </trkpt>
      <trkpt lat="48.39041" lon="6.83067">
        <ele>504.82946777344</ele>
        <time>2012-05-13T09:30:12Z</time>
      </trkpt>
      <trkpt lat="48.39043" lon="6.83047">
        <ele>488.00646972656</ele>
        <time>2012-05-13T09:30:21Z</time>
      </trkpt>
      <trkpt lat="48.39043" lon="6.83047">
        <ele>485.60302734375</ele>
        <time>2012-05-13T09:30:48Z</time>
      </trkpt>
      <trkpt lat="48.39043" lon="6.83047">
        <ele>484.1611328125</ele>
        <time>2012-05-13T09:31:59Z</time>
      </trkpt>
      <trkpt lat="48.39043" lon="6.83047">
        <ele>481.7578125</ele>
        <time>2012-05-13T09:33:50Z</time>
      </trkpt>
      <trkpt lat="48.39043" lon="6.83047">
        <ele>481.27722167969</ele>
        <time>2012-05-13T09:34:48Z</time>
      </trkpt>
      <trkpt lat="48.39043" lon="6.83047">
        <ele>480.79663085938</ele>
        <time>2012-05-13T09:35:16Z</time>
      </trkpt>
      <trkpt lat="48.39043" lon="6.83047">
        <ele>479.83508300781</ele>
        <time>2012-05-13T09:35:35Z</time>
      </trkpt>
      <trkpt lat="48.39043" lon="6.83047">
        <ele>478.39318847656</ele>
        <time>2012-05-13T09:36:03Z</time>
      </trkpt>
      <trkpt lat="48.3905" lon="6.83018">
        <ele>475.98986816406</ele>
        <time>2012-05-13T09:36:10Z</time>
      </trkpt>
      <trkpt lat="48.39054" lon="6.83006">
        <ele>475.02868652344</ele>
        <time>2012-05-13T09:36:13Z</time>
      </trkpt>
      <trkpt lat="48.39091" lon="6.82916">
        <ele>469.74133300781</ele>
        <time>2012-05-13T09:36:27Z</time>
      </trkpt>
      <trkpt lat="48.39111" lon="6.82887">
        <ele>463.01208496094</ele>
        <time>2012-05-13T09:36:34Z</time>
      </trkpt>
      <trkpt lat="48.39123" lon="6.82872">
        <ele>459.64758300781</ele>
        <time>2012-05-13T09:36:38Z</time>
      </trkpt>
      <trkpt lat="48.39138" lon="6.82866">
        <ele>457.72497558594</ele>
        <time>2012-05-13T09:36:41Z</time>
      </trkpt>
      <trkpt lat="48.39151" lon="6.8286">
        <ele>458.68615722656</ele>
        <time>2012-05-13T09:36:45Z</time>
      </trkpt>
      <trkpt lat="48.39194" lon="6.82887">
        <ele>451.95703125</ele>
        <time>2012-05-13T09:36:49Z</time>
      </trkpt>
      <trkpt lat="48.39221" lon="6.8286">
        <ele>451.95703125</ele>
        <time>2012-05-13T09:36:56Z</time>
      </trkpt>
      <trkpt lat="48.39225" lon="6.82856">
        <ele>450.99560546875</ele>
        <time>2012-05-13T09:36:57Z</time>
      </trkpt>
      <trkpt lat="48.39234" lon="6.82846">
        <ele>446.18908691406</ele>
        <time>2012-05-13T09:37:00Z</time>
      </trkpt>
      <trkpt lat="48.39232" lon="6.8281">
        <ele>442.34387207031</ele>
        <time>2012-05-13T09:37:05Z</time>
      </trkpt>
      <trkpt lat="48.39224" lon="6.82804">
        <ele>439.45971679688</ele>
        <time>2012-05-13T09:37:10Z</time>
      </trkpt>
      <trkpt lat="48.39239" lon="6.82786">
        <ele>438.49853515625</ele>
        <time>2012-05-13T09:37:17Z</time>
      </trkpt>
      <trkpt lat="48.39244" lon="6.8278">
        <ele>435.61450195312</ele>
        <time>2012-05-13T09:37:20Z</time>
      </trkpt>
      <trkpt lat="48.39241" lon="6.82772">
        <ele>433.21130371094</ele>
        <time>2012-05-13T09:37:24Z</time>
      </trkpt>
      <trkpt lat="48.39237" lon="6.82771">
        <ele>432.25</ele>
        <time>2012-05-13T09:37:26Z</time>
      </trkpt>
      <trkpt lat="48.39235" lon="6.82765">
        <ele>426.96276855469</ele>
        <time>2012-05-13T09:37:31Z</time>
      </trkpt>
      <trkpt lat="48.39262" lon="6.82764">
        <ele>423.11743164062</ele>
        <time>2012-05-13T09:37:41Z</time>
      </trkpt>
      <trkpt lat="48.39259" lon="6.82761">
        <ele>422.15600585938</ele>
        <time>2012-05-13T09:38:03Z</time>
      </trkpt>
      <trkpt lat="48.39258" lon="6.82763">
        <ele>421.19482421875</ele>
        <time>2012-05-13T09:38:20Z</time>
      </trkpt>
      <trkpt lat="48.39259" lon="6.82761">
        <ele>421.19482421875</ele>
        <time>2012-05-13T09:38:37Z</time>
      </trkpt>
      <trkpt lat="48.39251" lon="6.82753">
        <ele>419.27221679688</ele>
        <time>2012-05-13T09:38:44Z</time>
      </trkpt>
      <trkpt lat="48.39239" lon="6.82746">
        <ele>417.349609375</ele>
        <time>2012-05-13T09:38:49Z</time>
      </trkpt>
      <trkpt lat="48.39228" lon="6.82726">
        <ele>413.98486328125</ele>
        <time>2012-05-13T09:38:57Z</time>
      </trkpt>
      <trkpt lat="48.39235" lon="6.8272">
        <ele>412.06225585938</ele>
        <time>2012-05-13T09:39:02Z</time>
      </trkpt>
      <trkpt lat="48.39211" lon="6.8271">
        <ele>407.736328125</ele>
        <time>2012-05-13T09:39:10Z</time>
      </trkpt>
      <trkpt lat="48.39215" lon="6.82702">
        <ele>404.37170410156</ele>
        <time>2012-05-13T09:39:15Z</time>
      </trkpt>
      <trkpt lat="48.39225" lon="6.82627">
        <ele>399.56506347656</ele>
        <time>2012-05-13T09:39:20Z</time>
      </trkpt>
      <trkpt lat="48.39235" lon="6.82625">
        <ele>396.68115234375</ele>
        <time>2012-05-13T09:39:23Z</time>
      </trkpt>
      <trkpt lat="48.39245" lon="6.8266">
        <ele>392.8359375</ele>
        <time>2012-05-13T09:39:27Z</time>
      </trkpt>
      <trkpt lat="48.3925" lon="6.82621">
        <ele>389.95190429688</ele>
        <time>2012-05-13T09:39:31Z</time>
      </trkpt>
      <trkpt lat="48.39261" lon="6.82617">
        <ele>388.51000976562</ele>
        <time>2012-05-13T09:39:33Z</time>
      </trkpt>
      <trkpt lat="48.39287" lon="6.82614">
        <ele>384.18408203125</ele>
        <time>2012-05-13T09:39:37Z</time>
      </trkpt>
      <trkpt lat="48.393" lon="6.82614">
        <ele>380.81945800781</ele>
        <time>2012-05-13T09:39:42Z</time>
      </trkpt>
      <trkpt lat="48.39309" lon="6.82614">
        <ele>379.85803222656</ele>
        <time>2012-05-13T09:39:44Z</time>
      </trkpt>
      <trkpt lat="48.39329" lon="6.82616">
        <ele>375.53210449219</ele>
        <time>2012-05-13T09:39:51Z</time>
      </trkpt>
      <trkpt lat="48.39336" lon="6.82616">
        <ele>375.53210449219</ele>
        <time>2012-05-13T09:39:54Z</time>
      </trkpt>
      <trkpt lat="48.39336" lon="6.82616">
        <ele>374.57080078125</ele>
        <time>2012-05-13T09:39:59Z</time>
      </trkpt>
      <trkpt lat="48.39336" lon="6.82616">
        <ele>373.12890625</ele>
        <time>2012-05-13T09:40:15Z</time>
      </trkpt>
      <trkpt lat="48.39336" lon="6.82616">
        <ele>372.64819335938</ele>
        <time>2012-05-13T09:42:34Z</time>
      </trkpt>
      <trkpt lat="48.39336" lon="6.82616">
        <ele>372.64819335938</ele>
        <time>2012-05-13T09:43:07Z</time>
      </trkpt>
      <trkpt lat="48.39336" lon="6.82616">
        <ele>372.16748046875</ele>
        <time>2012-05-13T09:44:21Z</time>
      </trkpt>
      <trkpt lat="48.39336" lon="6.82616">
        <ele>370.24487304688</ele>
        <time>2012-05-13T09:46:01Z</time>
      </trkpt>
      <trkpt lat="48.39336" lon="6.82616">
        <ele>370.24487304688</ele>
        <time>2012-05-13T09:47:15Z</time>
      </trkpt>
      <trkpt lat="48.39336" lon="6.82616">
        <ele>370.24487304688</ele>
        <time>2012-05-13T09:48:53Z</time>
      </trkpt>
      <trkpt lat="48.39336" lon="6.82616">
        <ele>370.24487304688</ele>
        <time>2012-05-13T09:51:24Z</time>
      </trkpt>
      <trkpt lat="48.39336" lon="6.82616">
        <ele>370.24487304688</ele>
        <time>2012-05-13T09:51:46Z</time>
      </trkpt>
      <trkpt lat="48.39341" lon="6.82612">
        <ele>370.24487304688</ele>
        <time>2012-05-13T09:51:51Z</time>
      </trkpt>
      <trkpt lat="48.39354" lon="6.82686">
        <ele>372.64819335938</ele>
        <time>2012-05-13T09:52:04Z</time>
      </trkpt>
      <trkpt lat="48.39362" lon="6.82775">
        <ele>374.57080078125</ele>
        <time>2012-05-13T09:52:17Z</time>
      </trkpt>
      <trkpt lat="48.39355" lon="6.8288">
        <ele>369.76428222656</ele>
        <time>2012-05-13T09:52:31Z</time>
      </trkpt>
      <trkpt lat="48.39316" lon="6.82987">
        <ele>363.03503417969</ele>
        <time>2012-05-13T09:52:43Z</time>
      </trkpt>
      <trkpt lat="48.39294" lon="6.8308">
        <ele>358.22839355469</ele>
        <time>2012-05-13T09:52:53Z</time>
      </trkpt>
      <trkpt lat="48.39283" lon="6.8318">
        <ele>357.74780273438</ele>
        <time>2012-05-13T09:53:03Z</time>
      </trkpt>
      <trkpt lat="48.39276" lon="6.83231">
        <ele>357.26708984375</ele>
        <time>2012-05-13T09:53:10Z</time>
      </trkpt>
      <trkpt lat="48.39271" lon="6.83276">
        <ele>356.78637695312</ele>
        <time>2012-05-13T09:53:16Z</time>
      </trkpt>
      <trkpt lat="48.3927" lon="6.83293">
        <ele>357.26708984375</ele>
        <time>2012-05-13T09:53:19Z</time>
      </trkpt>
      <trkpt lat="48.39277" lon="6.83369">
        <ele>362.07373046875</ele>
        <time>2012-05-13T09:53:31Z</time>
      </trkpt>
      <trkpt lat="48.39299" lon="6.83431">
        <ele>366.88024902344</ele>
        <time>2012-05-13T09:53:42Z</time>
      </trkpt>
      <trkpt lat="48.39301" lon="6.83436">
        <ele>369.28369140625</ele>
        <time>2012-05-13T09:53:54Z</time>
      </trkpt>
      <trkpt lat="48.39301" lon="6.83436">
        <ele>369.76428222656</ele>
        <time>2012-05-13T09:54:20Z</time>
      </trkpt>
      <trkpt lat="48.39305" lon="6.83446">
        <ele>370.7255859375</ele>
        <time>2012-05-13T09:54:24Z</time>
      </trkpt>
      <trkpt lat="48.3934" lon="6.83455">
        <ele>372.16748046875</ele>
        <time>2012-05-13T09:54:33Z</time>
      </trkpt>
      <trkpt lat="48.39388" lon="6.83497">
        <ele>371.68688964844</ele>
        <time>2012-05-13T09:54:43Z</time>
      </trkpt>
      <trkpt lat="48.39402" lon="6.83529">
        <ele>373.60949707031</ele>
        <time>2012-05-13T09:54:48Z</time>
      </trkpt>
      <trkpt lat="48.39402" lon="6.8363">
        <ele>376.97424316406</ele>
        <time>2012-05-13T09:55:04Z</time>
      </trkpt>
      <trkpt lat="48.39425" lon="6.83695">
        <ele>376.97424316406</ele>
        <time>2012-05-13T09:55:16Z</time>
      </trkpt>
      <trkpt lat="48.39467" lon="6.83754">
        <ele>375.05151367188</ele>
        <time>2012-05-13T09:55:28Z</time>
      </trkpt>
      <trkpt lat="48.39521" lon="6.83842">
        <ele>369.28369140625</ele>
        <time>2012-05-13T09:55:42Z</time>
      </trkpt>
      <trkpt lat="48.39541" lon="6.83879">
        <ele>367.36096191406</ele>
        <time>2012-05-13T09:55:46Z</time>
      </trkpt>
      <trkpt lat="48.39553" lon="6.83901">
        <ele>366.39953613281</ele>
        <time>2012-05-13T09:55:48Z</time>
      </trkpt>
      <trkpt lat="48.39572" lon="6.8395">
        <ele>364.47692871094</ele>
        <time>2012-05-13T09:55:52Z</time>
      </trkpt>
      <trkpt lat="48.39595" lon="6.84065">
        <ele>358.708984375</ele>
        <time>2012-05-13T09:56:00Z</time>
      </trkpt>
      <trkpt lat="48.39621" lon="6.84158">
        <ele>356.30578613281</ele>
        <time>2012-05-13T09:56:06Z</time>
      </trkpt>
      <trkpt lat="48.39622" lon="6.84238">
        <ele>357.74780273438</ele>
        <time>2012-05-13T09:56:13Z</time>
      </trkpt>
      <trkpt lat="48.39608" lon="6.84381">
        <ele>345.25061035156</ele>
        <time>2012-05-13T09:56:26Z</time>
      </trkpt>
      <trkpt lat="48.39601" lon="6.84429">
        <ele>341.4052734375</ele>
        <time>2012-05-13T09:56:29Z</time>
      </trkpt>
      <trkpt lat="48.39584" lon="6.84509">
        <ele>339.00207519531</ele>
        <time>2012-05-13T09:56:34Z</time>
      </trkpt>
      <trkpt lat="48.39567" lon="6.84589">
        <ele>332.27282714844</ele>
        <time>2012-05-13T09:56:40Z</time>
      </trkpt>
      <trkpt lat="48.39563" lon="6.84603">
        <ele>331.79211425781</ele>
        <time>2012-05-13T09:56:42Z</time>
      </trkpt>
      <trkpt lat="48.39552" lon="6.84633">
        <ele>332.27282714844</ele>
        <time>2012-05-13T09:56:47Z</time>
      </trkpt>
      <trkpt lat="48.39558" lon="6.84628">
        <ele>331.3115234375</ele>
        <time>2012-05-13T09:56:52Z</time>
      </trkpt>
      <trkpt lat="48.39574" lon="6.846">
        <ele>328.42761230469</ele>
        <time>2012-05-13T09:56:56Z</time>
      </trkpt>
      <trkpt lat="48.39595" lon="6.84607">
        <ele>326.98559570312</ele>
        <time>2012-05-13T09:57:00Z</time>
      </trkpt>
      <trkpt lat="48.39625" lon="6.84617">
        <ele>322.17895507812</ele>
        <time>2012-05-13T09:57:04Z</time>
      </trkpt>
      <trkpt lat="48.39638" lon="6.84618">
        <ele>319.77563476562</ele>
        <time>2012-05-13T09:57:07Z</time>
      </trkpt>
      <trkpt lat="48.39651" lon="6.84644">
        <ele>316.41101074219</ele>
        <time>2012-05-13T09:57:14Z</time>
      </trkpt>
      <trkpt lat="48.39651" lon="6.84644">
        <ele>315.44982910156</ele>
        <time>2012-05-13T09:57:30Z</time>
      </trkpt>
      <trkpt lat="48.39651" lon="6.84644">
        <ele>315.44982910156</ele>
        <time>2012-05-13T09:57:34Z</time>
      </trkpt>
    </trkseg>
  </trk>
</gpx>